Data Archive--September, 2002

Date Time Current Temp Wind Chill High Temp Low Temp Wind Speed Gust Wind Direction Rain Barometer
09/01/2002 12:00 a 63.2 63.2 63.5 63.0 0.0 3.0 SE 0.00 30.324
09/01/2002 12:30 a 63.0 63.0 63.3 62.8 0.0 2.0 SW 0.00 30.325
09/01/2002 1:00 a 62.7 62.7 62.9 62.6 0.0 2.0 SSE 0.00 30.312
09/01/2002 1:30 a 62.4 62.4 62.7 62.2 0.0 3.0 SE 0.00 30.305
09/01/2002 2:00 a 62.3 62.3 62.6 62.0 0.0 3.0 ESE 0.00 30.295
09/01/2002 2:30 a 62.1 62.1 62.3 61.9 0.0 7.0 SSE 0.00 30.288
09/01/2002 3:00 a 62.3 62.3 62.4 62.1 0.0 4.0 WSW 0.00 30.274
09/01/2002 3:30 a 62.1 62.1 62.3 61.9 0.0 2.0 W 0.00 30.263
09/01/2002 4:00 a 61.3 61.3 62.0 60.8 0.0 2.0 SSW 0.00 30.257
09/01/2002 4:30 a 60.6 60.6 60.9 60.2 0.0 2.0 SSW 0.00 30.256
09/01/2002 5:00 a 60.2 60.2 60.4 59.9 0.0 5.0 S 0.00 30.252
09/01/2002 5:30 a 59.9 59.9 60.1 59.7 0.0 2.0 SW 0.00 30.250
09/01/2002 6:00 a 59.8 59.8 60.0 59.7 0.0 3.0 SW 0.00 30.248
09/01/2002 6:30 a 59.7 59.7 59.9 59.5 0.0 2.0 SW 0.00 30.254
09/01/2002 7:00 a 59.6 59.6 59.8 59.5 0.0 2.0 SSW 0.00 30.258
09/01/2002 7:30 a 58.8 58.8 59.7 57.8 0.0 2.0 SSW 0.01 30.254
09/01/2002 8:00 a 57.6 57.6 57.9 57.3 0.0 2.0 S 0.03 30.251
09/01/2002 8:30 a 57.4 57.4 57.6 57.3 0.0 2.0 S 0.04 30.254
09/01/2002 9:00 a 57.7 57.7 58.0 57.3 0.0 2.0 S 0.01 30.246
09/01/2002 9:30 a 58.2 58.2 59.6 57.8 0.0 2.0 S 0.01 30.245
09/01/2002 10:00 a 60.1 60.1 62.1 59.1 0.0 4.0 SE 0.00 30.240
09/01/2002 10:30 a 60.2 60.2 62.1 59.1 0.0 2.0 SW 0.00 30.238
09/01/2002 11:00 a 60.6 60.6 62.5 59.1 0.0 1.0 SW 0.01 30.228
09/01/2002 11:30 a 61.3 61.3 62.4 60.4 0.0 3.0 SW 0.00 30.222
09/01/2002 12:00 p 60.1 60.1 61.9 59.7 0.0 2.0 SE 0.01 30.217
09/01/2002 12:30 p 62.3 62.3 64.6 59.8 0.0 2.0 SE 0.01 30.209
09/01/2002 1:00 p 62.0 62.0 64.2 61.1 0.0 2.0 SSW 0.00 30.205
09/01/2002 1:30 p 63.0 63.0 65.7 61.2 0.0 2.0 SSW 0.01 30.201
09/01/2002 2:00 p 64.5 64.5 66.5 63.1 0.0 2.0 SSW 0.00 30.194
09/01/2002 2:30 p 64.3 64.3 66.0 62.9 0.0 2.0 SSW 0.00 30.184
09/01/2002 3:00 p 64.8 64.8 66.8 62.9 0.0 0.0 --- 0.01 30.173
09/01/2002 3:30 p 63.4 63.4 64.0 62.9 0.0 1.0 SSW 0.00 30.156
09/01/2002 4:00 p 64.0 64.0 64.4 63.7 0.0 2.0 SSW 0.00 30.148
09/01/2002 4:30 p 64.4 64.4 64.8 63.6 0.0 1.0 --- 0.00 30.139
09/01/2002 5:00 p 65.1 65.1 65.5 64.6 0.0 3.0 SW 0.00 30.131
09/01/2002 5:30 p 65.5 65.5 66.0 65.3 0.0 1.0 SW 0.00 30.125
09/01/2002 6:00 p 65.2 65.2 65.9 64.4 0.0 2.0 SW 0.00 30.126
09/01/2002 6:30 p 64.1 64.1 64.4 63.9 0.0 1.0 --- 0.00 30.114
09/01/2002 7:00 p 64.0 64.0 64.1 63.9 0.0 1.0 --- 0.00 30.111
09/01/2002 7:30 p 63.8 63.8 64.0 63.6 0.0 2.0 SSW 0.00 30.114
09/01/2002 8:00 p 63.4 63.4 63.7 63.1 0.0 2.0 SE 0.00 30.108
09/01/2002 8:30 p 62.9 62.9 63.2 62.6 0.0 1.0 --- 0.01 30.104
09/01/2002 9:00 p 62.4 62.4 62.8 62.2 0.0 1.0 SE 0.02 30.110
09/01/2002 9:30 p 62.2 62.2 62.3 62.1 0.0 1.0 --- 0.00 30.102
09/01/2002 10:00 p 62.1 62.1 62.2 62.0 0.0 0.0 --- 0.00 30.091
09/01/2002 10:30 p 62.0 62.0 62.2 61.9 0.0 3.0 SE 0.00 30.077
09/01/2002 11:00 p 61.9 61.9 62.1 61.8 0.0 1.0 SW 0.00 30.070
09/01/2002 11:30 p 62.0 62.0 62.2 61.9 0.0 2.0 SE 0.00 30.058
09/02/2002 12:00 a 62.0 62.0 62.1 61.9 0.0 1.0 --- 0.03 30.055
09/02/2002 12:30 a 62.0 62.0 62.1 61.9 0.0 4.0 SE 0.01 30.041
09/02/2002 1:00 a 61.9 61.9 62.0 61.8 0.0 2.0 SE 0.00 30.025
09/02/2002 1:30 a 61.9 61.9 62.0 61.8 0.0 3.0 S 0.00 30.017
09/02/2002 2:00 a 61.9 61.9 62.0 61.8 0.0 1.0 S 0.01 30.009
09/02/2002 2:30 a 61.6 61.6 61.8 61.5 0.0 3.0 S 0.00 29.993
09/02/2002 3:00 a 61.3 61.3 61.5 60.9 0.0 4.0 WSW 0.05 29.980
09/02/2002 3:30 a 60.9 60.9 61.0 60.7 0.0 5.0 SE 0.01 29.970
09/02/2002 4:00 a 60.8 60.8 61.0 60.7 0.0 2.0 WSW 0.00 29.963
09/02/2002 4:30 a 60.8 60.8 60.9 60.7 0.0 2.0 WSW 0.01 29.957
09/02/2002 5:00 a 60.7 60.7 60.8 60.5 0.0 3.0 WSW 0.02 29.956
09/02/2002 5:30 a 60.6 60.6 60.7 60.4 0.0 2.0 SSW 0.06 29.949
09/02/2002 6:00 a 60.5 60.5 60.6 60.4 0.0 1.0 SSW 0.05 29.946
09/02/2002 6:30 a 60.5 60.5 60.7 60.4 0.0 3.0 SW 0.05 29.951
09/02/2002 7:00 a 60.5 60.5 60.6 60.4 0.0 2.0 SW 0.02 29.955
09/02/2002 7:30 a 60.6 60.6 60.9 60.4 0.0 2.0 SW 0.01 29.965
09/02/2002 8:00 a 61.0 61.0 61.3 60.8 0.0 2.0 SW 0.00 29.962
09/02/2002 8:30 a 61.5 61.5 61.8 61.2 0.0 4.0 SW 0.00 29.958
09/02/2002 9:00 a 62.3 62.3 63.4 61.8 0.0 6.0 WSW 0.00 29.954
09/02/2002 9:30 a 64.2 64.2 65.0 63.3 0.0 5.0 WSW 0.00 29.952
09/02/2002 10:00 a 63.8 63.8 64.4 63.4 0.0 5.0 WSW 0.00 29.944
09/02/2002 10:30 a 64.4 64.4 64.9 63.6 0.0 4.0 WSW 0.00 29.942
09/02/2002 11:00 a 65.3 65.3 66.4 64.7 0.0 3.0 SW 0.00 29.936
09/02/2002 11:30 a 66.9 66.9 67.6 66.1 0.0 5.0 WSW 0.00 29.928
09/02/2002 12:00 p 67.3 67.3 67.9 66.8 0.0 5.0 SW 0.00 29.920
09/02/2002 12:30 p 68.0 68.0 69.1 67.1 0.0 4.0 WSW 0.00 29.911
09/02/2002 1:00 p 70.1 70.1 71.2 69.0 0.0 8.0 WSW 0.00 29.904
09/02/2002 1:30 p 69.6 69.6 71.1 67.7 1.0 5.0 WSW 0.00 29.897
09/02/2002 2:00 p 68.0 68.0 68.9 67.4 1.0 5.0 WSW 0.00 29.896
09/02/2002 2:30 p 68.9 68.9 69.2 68.5 1.0 6.0 WSW 0.00 29.889
09/02/2002 3:00 p 68.8 68.8 70.2 68.1 0.0 5.0 WSW 0.00 29.877
09/02/2002 3:30 p 69.9 69.9 70.4 69.2 0.0 4.0 WSW 0.00 29.865
09/02/2002 4:00 p 69.4 69.4 69.7 69.1 1.0 5.0 WSW 0.00 29.862
09/02/2002 4:30 p 68.4 68.4 69.7 66.8 0.0 4.0 WSW 0.00 29.864
09/02/2002 5:00 p 66.8 66.8 67.4 66.5 0.0 3.0 WSW 0.00 29.863
09/02/2002 5:30 p 67.3 67.3 67.6 67.0 1.0 5.0 WSW 0.00 29.864
09/02/2002 6:00 p 67.5 67.5 67.6 67.1 0.0 4.0 WSW 0.00 29.870
09/02/2002 6:30 p 66.8 66.8 67.2 66.2 0.0 4.0 WSW 0.00 29.865
09/02/2002 7:00 p 66.7 66.7 66.9 66.3 1.0 4.0 WSW 0.00 29.866
09/02/2002 7:30 p 66.6 66.6 66.7 66.5 1.0 3.0 WSW 0.00 29.871
09/02/2002 8:00 p 66.5 66.5 66.7 66.4 1.0 3.0 WSW 0.00 29.870
09/02/2002 8:30 p 66.6 66.6 66.8 66.3 0.0 4.0 WSW 0.00 29.877
09/02/2002 9:00 p 66.9 66.9 67.1 66.8 0.0 2.0 WSW 0.00 29.878
09/02/2002 9:30 p 66.9 66.9 67.1 66.4 0.0 2.0 WSW 0.00 29.884
09/02/2002 10:00 p 66.9 66.9 67.2 66.3 0.0 1.0 WSW 0.00 29.881
09/02/2002 10:30 p 66.7 66.7 67.1 66.2 0.0 3.0 WSW 0.00 29.887
09/02/2002 11:00 p 66.1 66.1 66.6 65.6 0.0 1.0 WSW 0.00 29.876
09/02/2002 11:30 p 66.4 66.4 66.7 65.8 0.0 1.0 WSW 0.00 29.870
09/03/2002 12:00 a 66.0 66.0 66.4 65.6 0.0 0.0 --- 0.00 29.865
09/03/2002 12:30 a 65.1 65.1 65.6 64.8 0.0 0.0 --- 0.00 29.860
09/03/2002 1:00 a 64.4 64.4 64.8 63.8 0.0 0.0 --- 0.00 29.864
09/03/2002 1:30 a 63.4 63.4 63.9 62.9 0.0 0.0 --- 0.00 29.865
09/03/2002 2:00 a 62.5 62.5 62.9 62.1 0.0 0.0 --- 0.00 29.864
09/03/2002 2:30 a 61.9 61.9 62.2 61.5 0.0 0.0 --- 0.00 29.866
09/03/2002 3:00 a 61.5 61.5 61.7 61.4 0.0 1.0 WSW 0.00 29.869
09/03/2002 3:30 a 61.6 61.6 61.7 61.4 0.0 2.0 WSW 0.00 29.871
09/03/2002 4:00 a 61.3 61.3 61.6 61.0 0.0 0.0 --- 0.00 29.872
09/03/2002 4:30 a 60.6 60.6 61.0 60.3 0.0 0.0 --- 0.00 29.874
09/03/2002 5:00 a 60.1 60.1 60.4 59.9 0.0 0.0 --- 0.00 29.872
09/03/2002 5:30 a 59.9 59.9 60.2 59.6 0.0 0.0 --- 0.00 29.881
09/03/2002 6:00 a 60.0 60.0 60.4 59.5 0.0 1.0 --- 0.00 29.882
09/03/2002 6:30 a 59.7 59.7 59.9 59.4 0.0 1.0 --- 0.00 29.887
09/03/2002 7:00 a 59.6 59.6 59.9 59.4 0.0 0.0 --- 0.00 29.887
09/03/2002 7:30 a 60.2 60.2 61.2 59.6 0.0 0.0 --- 0.00 29.894
09/03/2002 8:00 a 62.8 62.8 64.5 61.2 0.0 0.0 --- 0.00 29.895
09/03/2002 8:30 a 66.0 66.0 68.8 64.5 0.0 1.0 WSW 0.00 29.899
09/03/2002 9:00 a 69.7 69.7 71.8 67.9 0.0 1.0 --- 0.00 29.902
09/03/2002 9:30 a 70.1 70.1 71.7 68.7 0.0 3.0 WSW 0.00 29.899
09/03/2002 10:00 a 70.3 70.3 71.5 69.3 0.0 3.0 SSW 0.00 29.885
09/03/2002 10:30 a 72.3 72.3 73.3 71.5 0.0 2.0 W 0.00 29.883
09/03/2002 11:00 a 74.0 74.0 74.8 73.1 0.0 3.0 WSW 0.00 29.877
09/03/2002 11:30 a 76.1 76.1 77.3 74.8 0.0 4.0 WSW 0.00 29.869
09/03/2002 12:00 p 78.4 78.4 79.6 77.0 0.0 2.0 S 0.00 29.867
09/03/2002 12:30 p 80.0 80.0 81.0 79.1 0.0 3.0 SW 0.00 29.859
09/03/2002 1:00 p 81.1 81.1 82.2 80.3 0.0 3.0 SW 0.00 29.860
09/03/2002 1:30 p 82.1 82.1 82.9 81.0 0.0 3.0 ESE 0.00 29.843
09/03/2002 2:00 p 83.3 83.3 84.0 82.7 0.0 3.0 E 0.00 29.838
09/03/2002 2:30 p 83.0 83.0 84.0 82.2 0.0 4.0 SW 0.00 29.827
09/03/2002 3:00 p 83.4 83.4 84.4 82.6 0.0 2.0 W 0.00 29.820
09/03/2002 3:30 p 84.0 84.0 84.6 83.2 0.0 1.0 WNW 0.00 29.809
09/03/2002 4:00 p 83.7 83.7 84.3 83.0 0.0 2.0 WNW 0.00 29.799
09/03/2002 4:30 p 83.0 83.0 83.7 82.2 0.0 2.0 NW 0.00 29.796
09/03/2002 5:00 p 81.7 81.7 82.2 81.2 0.0 1.0 NW 0.00 29.788
09/03/2002 5:30 p 80.8 80.8 81.5 80.2 0.0 1.0 --- 0.00 29.790
09/03/2002 6:00 p 79.7 79.7 80.4 79.0 0.0 0.0 --- 0.00 29.799
09/03/2002 6:30 p 78.4 78.4 79.1 77.8 0.0 0.0 --- 0.00 29.799
09/03/2002 7:00 p 77.0 77.0 77.8 75.9 0.0 0.0 --- 0.00 29.800
09/03/2002 7:30 p 75.2 75.2 75.9 74.4 0.0 0.0 --- 0.00 29.798
09/03/2002 8:00 p 74.0 74.0 74.4 73.6 0.0 1.0 --- 0.00 29.806
09/03/2002 8:30 p 73.1 73.1 73.7 72.4 0.0 0.0 --- 0.00 29.814
09/03/2002 9:00 p 72.6 72.6 72.9 72.4 0.0 0.0 --- 0.00 29.813
09/03/2002 9:30 p 72.7 72.7 72.9 72.6 0.0 0.0 --- 0.00 29.809
09/03/2002 10:00 p 72.5 72.5 72.8 72.3 0.0 0.0 --- 0.00 29.804
09/03/2002 10:30 p 72.0 72.0 72.4 71.7 0.0 0.0 --- 0.00 29.807
09/03/2002 11:00 p 71.2 71.2 72.2 70.5 0.0 0.0 --- 0.00 29.801
09/03/2002 11:30 p 70.6 70.6 70.9 70.4 0.0 0.0 --- 0.00 29.796
09/04/2002 12:00 a 70.2 70.2 70.4 69.9 0.0 0.0 --- 0.00 29.787
09/04/2002 12:30 a 69.9 69.9 70.1 69.7 0.0 0.0 --- 0.00 29.781
09/04/2002 1:00 a 69.5 69.5 69.7 69.3 0.0 0.0 --- 0.00 29.781
09/04/2002 1:30 a 69.0 69.0 69.3 68.8 0.0 0.0 --- 0.00 29.777
09/04/2002 2:00 a 69.2 69.2 69.4 68.9 0.0 0.0 --- 0.00 29.774
09/04/2002 2:30 a 69.3 69.3 69.4 69.2 0.0 0.0 --- 0.00 29.767
09/04/2002 3:00 a 69.0 69.0 69.3 68.9 0.0 0.0 --- 0.00 29.760
09/04/2002 3:30 a 69.1 69.1 69.2 69.0 0.0 0.0 --- 0.00 29.748
09/04/2002 4:00 a 69.0 69.0 69.1 68.8 0.0 0.0 --- 0.00 29.743
09/04/2002 4:30 a 69.2 69.2 69.5 69.0 0.0 0.0 --- 0.00 29.747
09/04/2002 5:00 a 69.5 69.5 69.6 69.3 0.0 0.0 --- 0.00 29.754
09/04/2002 5:30 a 69.8 69.8 69.9 69.5 0.0 0.0 --- 0.00 29.758
09/04/2002 6:00 a 69.5 69.5 69.6 69.3 0.0 0.0 --- 0.00 29.763
09/04/2002 6:30 a 69.2 69.2 69.3 68.9 0.0 0.0 --- 0.00 29.760
09/04/2002 7:00 a 69.0 69.0 69.3 68.8 0.0 0.0 --- 0.00 29.769
09/04/2002 6:30 p 83.0 83.0 84.4 81.5 1.0 6.0 WSW 0.00 29.742
09/04/2002 7:00 p 80.8 80.8 81.6 79.8 0.0 3.0 WSW 0.00 29.759
09/04/2002 7:30 p 78.4 78.4 79.7 76.3 0.0 2.0 WSW 0.00 29.765
09/04/2002 8:00 p 74.5 74.5 76.3 73.4 0.0 0.0 --- 0.00 29.781
09/04/2002 8:30 p 74.5 74.5 76.2 73.5 0.0 3.0 WSW 0.00 29.797
09/04/2002 9:00 p 76.4 76.4 77.8 75.9 0.0 3.0 WSW 0.00 29.805
09/04/2002 9:30 p 73.9 73.9 77.6 70.4 0.0 0.0 --- 0.00 29.804
09/04/2002 10:00 p 68.7 68.7 70.5 67.5 0.0 0.0 --- 0.00 29.818
09/04/2002 10:30 p 66.8 66.8 67.5 66.2 0.0 0.0 --- 0.00 29.822
09/04/2002 11:00 p 65.7 65.7 66.3 65.4 0.0 0.0 --- 0.00 29.827
09/04/2002 11:30 p 65.5 65.5 65.8 65.1 0.0 0.0 --- 0.00 29.830
09/05/2002 12:00 a 65.1 65.1 65.6 64.7 0.0 0.0 --- 0.00 29.838
09/05/2002 12:30 a 65.9 65.9 66.5 65.3 0.0 0.0 --- 0.00 29.839
09/05/2002 1:00 a 67.8 67.8 68.5 66.5 0.0 0.0 --- 0.00 29.840
09/05/2002 1:30 a 66.3 66.3 68.3 64.4 0.0 0.0 --- 0.00 29.838
09/05/2002 2:00 a 65.1 65.1 67.3 64.2 0.0 2.0 WSW 0.00 29.837
09/05/2002 2:30 a 64.6 64.6 66.7 63.6 0.0 1.0 WSW 0.00 29.835
09/05/2002 3:00 a 63.7 63.7 64.0 63.1 0.0 2.0 WSW 0.00 29.832
09/05/2002 3:30 a 63.7 63.7 64.1 63.4 0.0 2.0 WSW 0.00 29.836
09/05/2002 4:00 a 63.5 63.5 63.8 63.3 0.0 2.0 WSW 0.00 29.827
09/05/2002 4:30 a 62.7 62.7 63.3 62.3 0.0 1.0 WSW 0.00 29.825
09/05/2002 5:00 a 61.8 61.8 62.4 61.4 0.0 1.0 WSW 0.00 29.837
09/05/2002 5:30 a 61.3 61.3 61.5 61.1 0.0 1.0 --- 0.00 29.834
09/05/2002 6:00 a 60.5 60.5 61.1 60.0 0.0 0.0 --- 0.00 29.840
09/05/2002 6:30 a 59.8 59.8 60.7 59.2 0.0 0.0 --- 0.00 29.854
09/05/2002 7:00 a 59.6 59.6 59.9 59.2 0.0 2.0 WSW 0.00 29.867
09/05/2002 7:30 a 60.5 60.5 61.5 59.6 0.0 0.0 --- 0.00 29.875
09/05/2002 8:00 a 62.9 62.9 65.9 61.5 0.0 2.0 WSW 0.00 29.885
09/05/2002 8:30 a 67.4 67.4 68.4 66.0 1.0 5.0 WSW 0.00 29.890
09/05/2002 9:00 a 69.4 69.4 70.4 68.4 1.0 7.0 WSW 0.00 29.886
09/05/2002 9:30 a 71.4 71.4 72.2 70.4 1.0 6.0 WSW 0.00 29.887
09/05/2002 10:00 a 72.9 72.9 73.8 71.9 1.0 5.0 WSW 0.00 29.892
09/05/2002 10:30 a 74.5 74.5 75.1 73.6 0.0 6.0 WSW 0.00 29.886
09/05/2002 11:00 a 75.1 75.1 75.7 74.6 1.0 7.0 WSW 0.00 29.889
09/05/2002 11:30 a 76.1 76.1 77.1 75.4 1.0 7.0 WSW 0.00 29.883
09/05/2002 12:00 p 77.8 77.8 79.4 76.2 1.0 6.0 WSW 0.00 29.878
09/05/2002 12:30 p 78.9 78.9 80.9 77.1 1.0 6.0 WSW 0.00 29.876
09/05/2002 1:00 p 79.3 79.3 80.9 76.6 1.0 6.0 WSW 0.00 29.865
09/05/2002 1:30 p 79.8 79.8 81.9 77.6 1.0 5.0 WSW 0.00 29.859
09/05/2002 2:00 p 80.1 80.1 82.8 77.5 1.0 5.0 WSW 0.00 29.857
09/05/2002 2:30 p 80.0 80.0 81.2 77.4 1.0 7.0 WSW 0.00 29.845
09/05/2002 3:00 p 80.5 80.5 81.1 79.6 1.0 8.0 WSW 0.00 29.840
09/05/2002 3:30 p 80.7 80.7 81.4 79.9 1.0 7.0 WSW 0.00 29.840
09/05/2002 4:00 p 80.0 80.0 80.8 79.3 1.0 7.0 WSW 0.00 29.835
09/05/2002 4:30 p 79.4 79.4 80.2 78.7 1.0 9.0 WSW 0.00 29.830
09/05/2002 5:00 p 78.5 78.5 79.0 78.0 1.0 5.0 WSW 0.00 29.826
09/05/2002 5:30 p 77.6 77.6 78.0 77.0 1.0 5.0 WSW 0.00 29.834
09/05/2002 6:00 p 77.2 77.2 78.9 76.1 1.0 6.0 WSW 0.00 29.846
09/05/2002 6:30 p 75.4 75.4 76.1 74.9 1.0 6.0 WSW 0.00 29.854
09/05/2002 7:00 p 76.0 76.0 78.0 74.6 1.0 4.0 WSW 0.00 29.862
09/05/2002 7:30 p 72.6 72.6 74.5 70.8 0.0 4.0 WSW 0.00 29.873
09/05/2002 8:00 p 70.4 70.4 73.8 69.4 0.0 2.0 WSW 0.00 29.887
09/05/2002 8:30 p 69.1 69.1 71.4 67.6 0.0 1.0 --- 0.00 29.902
09/05/2002 9:00 p 67.0 67.0 69.3 66.3 0.0 0.0 --- 0.00 29.910
09/05/2002 9:30 p 67.4 67.4 69.5 65.9 0.0 3.0 WSW 0.00 29.917
09/05/2002 10:00 p 67.7 67.7 70.4 65.4 0.0 2.0 WSW 0.00 29.930
09/05/2002 10:30 p 64.7 64.7 65.9 63.6 0.0 0.0 --- 0.00 29.933
09/05/2002 11:00 p 65.8 65.8 67.4 63.7 0.0 5.0 WSW 0.00 29.935
09/05/2002 11:30 p 67.0 67.0 67.5 66.6 0.0 4.0 WSW 0.00 29.934
09/06/2002 12:00 a 66.4 66.4 66.7 66.0 1.0 4.0 WSW 0.00 29.945
09/06/2002 12:30 a 65.3 65.3 66.0 64.7 0.0 2.0 WSW 0.00 29.949
09/06/2002 1:00 a 64.3 64.3 64.8 62.9 0.0 2.0 WSW 0.00 29.952
09/06/2002 1:30 a 61.2 61.2 62.9 60.5 0.0 0.0 --- 0.00 29.956
09/06/2002 2:00 a 59.4 59.4 60.5 58.4 0.0 0.0 --- 0.00 29.956
09/06/2002 2:30 a 57.9 57.9 58.9 56.8 0.0 0.0 --- 0.00 29.961
09/06/2002 3:00 a 56.9 56.9 57.6 56.3 0.0 0.0 --- 0.00 29.969
09/06/2002 3:30 a 56.2 56.2 56.7 55.6 0.0 0.0 --- 0.00 29.971
09/06/2002 4:00 a 55.9 55.9 56.6 55.1 0.0 1.0 WSW 0.00 29.981
09/06/2002 4:30 a 55.0 55.0 55.4 54.6 0.0 0.0 --- 0.00 29.980
09/06/2002 5:00 a 54.5 54.5 55.3 54.0 0.0 0.0 --- 0.00 29.983
09/06/2002 5:30 a 53.8 53.8 54.2 53.3 0.0 0.0 --- 0.00 29.995
09/06/2002 6:00 a 53.6 53.6 54.0 53.0 0.0 0.0 --- 0.00 30.001
09/06/2002 6:30 a 53.3 53.3 53.6 52.9 0.0 0.0 --- 0.00 30.011
09/06/2002 7:00 a 53.5 53.5 54.1 52.9 0.0 0.0 --- 0.00 30.019
09/06/2002 7:30 a 54.2 54.2 55.3 53.8 0.0 0.0 --- 0.00 30.023
09/06/2002 8:00 a 57.9 57.9 59.9 55.3 0.0 0.0 --- 0.00 30.030
09/06/2002 8:30 a 61.2 61.2 62.2 59.9 0.0 1.0 WSW 0.00 30.029
09/06/2002 9:00 a 63.4 63.4 64.4 62.1 0.0 3.0 SW 0.00 30.033
09/06/2002 9:30 a 65.6 65.6 66.8 64.4 0.0 2.0 SW 0.00 30.039
09/06/2002 10:00 a 67.7 67.7 68.7 66.8 0.0 3.0 SW 0.00 30.047
09/06/2002 10:30 a 69.0 69.0 69.7 68.3 0.0 3.0 SSW 0.00 30.048
09/06/2002 11:00 a 70.4 70.4 71.0 69.5 0.0 5.0 WSW 0.00 30.044
09/06/2002 11:30 a 72.4 72.4 73.7 70.8 0.0 3.0 SE 0.00 30.042
09/06/2002 12:00 p 74.2 74.2 75.4 73.3 0.0 4.0 SE 0.00 30.035
09/06/2002 12:30 p 76.0 76.0 77.4 74.4 0.0 3.0 ESE 0.00 30.030
09/06/2002 1:00 p 77.2 77.2 78.4 76.2 0.0 3.0 SSW 0.00 30.026
09/06/2002 1:30 p 78.3 78.3 79.0 77.3 0.0 3.0 SE 0.00 30.021
09/06/2002 2:00 p 78.7 78.7 79.4 77.8 1.0 5.0 WSW 0.00 30.020
09/06/2002 2:30 p 79.3 79.3 79.9 78.5 0.0 5.0 SW 0.00 30.005
09/06/2002 3:00 p 79.8 79.8 80.3 79.0 0.0 3.0 SSE 0.00 30.000
09/06/2002 3:30 p 79.8 79.8 80.5 78.7 0.0 4.0 S 0.00 29.993
09/06/2002 4:00 p 79.5 79.5 80.0 78.8 0.0 4.0 WSW 0.00 29.989
09/06/2002 4:30 p 78.3 78.3 79.5 77.4 0.0 3.0 SW 0.00 29.996
09/06/2002 5:00 p 77.1 77.1 77.5 76.8 0.0 2.0 SW 0.00 29.988
09/06/2002 5:30 p 76.5 76.5 77.1 75.2 0.0 3.0 SW 0.00 29.987
09/06/2002 6:00 p 74.3 74.3 75.2 73.2 0.0 1.0 SW 0.00 29.997
09/06/2002 6:30 p 72.5 72.5 73.5 71.4 0.0 1.0 --- 0.00 30.001
09/06/2002 7:00 p 69.8 69.8 71.6 68.4 0.0 0.0 --- 0.00 30.006
09/06/2002 7:30 p 66.9 66.9 68.3 66.4 0.0 0.0 --- 0.00 30.012
09/06/2002 8:00 p 64.9 64.9 66.4 63.1 0.0 0.0 --- 0.00 30.025
09/06/2002 8:30 p 62.5 62.5 63.2 61.6 0.0 0.0 --- 0.00 30.032
09/06/2002 9:00 p 61.3 61.3 61.7 60.8 0.0 0.0 --- 0.00 30.037
09/06/2002 9:30 p 60.7 60.7 61.4 60.0 0.0 0.0 --- 0.00 30.044
09/06/2002 10:00 p 59.6 59.6 60.1 58.7 0.0 0.0 --- 0.00 30.052
09/06/2002 10:30 p 58.3 58.3 58.7 57.9 0.0 0.0 --- 0.00 30.054
09/06/2002 11:00 p 57.5 57.5 58.1 57.0 0.0 0.0 --- 0.00 30.055
09/06/2002 11:30 p 57.5 57.5 58.0 56.9 0.0 0.0 --- 0.00 30.061
09/07/2002 12:00 a 56.8 56.8 57.3 56.3 0.0 0.0 --- 0.00 30.064
09/07/2002 12:30 a 55.9 55.9 56.6 55.5 0.0 0.0 --- 0.00 30.068
09/07/2002 1:00 a 55.3 55.3 55.7 54.9 0.0 0.0 --- 0.00 30.068
09/07/2002 1:30 a 55.1 55.1 55.5 54.7 0.0 0.0 --- 0.00 30.071
09/07/2002 2:00 a 54.5 54.5 55.1 54.1 0.0 0.0 --- 0.00 30.075
09/07/2002 2:30 a 54.1 54.1 54.7 53.6 0.0 0.0 --- 0.00 30.072
09/07/2002 3:00 a 53.9 53.9 54.2 53.6 0.0 0.0 --- 0.00 30.079
09/07/2002 3:30 a 53.6 53.6 53.9 53.0 0.0 0.0 --- 0.00 30.076
09/07/2002 4:00 a 53.2 53.2 53.4 52.8 0.0 0.0 --- 0.00 30.076
09/07/2002 4:30 a 52.7 52.7 53.2 52.2 0.0 1.0 --- 0.00 30.081
09/07/2002 5:00 a 52.3 52.3 52.7 51.9 0.0 0.0 --- 0.00 30.097
09/07/2002 5:30 a 52.1 52.1 52.5 51.8 0.0 0.0 --- 0.00 30.102
09/07/2002 6:00 a 51.7 51.7 52.2 51.5 0.0 0.0 --- 0.00 30.107
09/07/2002 6:30 a 51.3 51.3 51.7 51.1 0.0 0.0 --- 0.00 30.118
09/07/2002 7:00 a 51.3 51.3 51.9 50.8 0.0 0.0 --- 0.00 30.131
09/07/2002 7:30 a 52.2 52.2 53.0 51.9 0.0 0.0 --- 0.00 30.135
09/07/2002 8:00 a 54.4 54.4 55.6 53.0 0.0 0.0 --- 0.00 30.139
09/07/2002 8:30 a 57.2 57.2 58.8 55.7 0.0 0.0 --- 0.00 30.141
09/07/2002 9:00 a 61.0 61.0 63.2 58.8 0.0 0.0 --- 0.00 30.141
09/07/2002 9:30 a 65.5 65.5 67.6 63.2 0.0 0.0 --- 0.00 30.144
09/07/2002 10:00 a 68.7 68.7 69.9 67.5 0.0 1.0 SW 0.00 30.144
09/07/2002 10:30 a 71.2 71.2 72.4 69.9 0.0 1.0 SW 0.00 30.148
09/07/2002 11:00 a 74.0 74.0 75.5 72.4 0.0 1.0 SW 0.00 30.145
09/07/2002 11:30 a 76.7 76.7 78.5 75.5 0.0 2.0 SE 0.00 30.145
09/07/2002 12:00 p 79.0 79.0 80.1 78.3 0.0 2.0 SE 0.00 30.138
09/07/2002 12:30 p 81.2 81.2 82.6 79.6 0.0 2.0 SE 0.00 30.140
09/07/2002 1:00 p 82.7 82.7 83.7 81.2 0.0 4.0 WSW 0.00 30.140
09/07/2002 1:30 p 83.6 83.6 84.2 82.6 0.0 2.0 SE 0.00 30.136
09/07/2002 2:00 p 83.9 83.9 85.1 82.9 1.0 4.0 SW 0.00 30.130
09/07/2002 2:30 p 84.4 84.4 85.4 83.3 1.0 3.0 E 0.00 30.121
09/07/2002 3:00 p 84.5 84.5 85.4 83.7 0.0 3.0 E 0.00 30.118
09/07/2002 3:30 p 83.9 83.9 85.1 83.1 0.0 3.0 E 0.00 30.113
09/07/2002 4:00 p 84.5 84.5 86.0 83.0 0.0 3.0 ESE 0.00 30.109
09/07/2002 4:30 p 82.3 82.3 85.1 81.1 0.0 2.0 ESE 0.00 30.113
09/07/2002 5:00 p 80.7 80.7 81.4 79.8 0.0 4.0 NW 0.00 30.111
09/07/2002 5:30 p 79.5 79.5 80.5 78.4 0.0 2.0 W 0.00 30.111
09/07/2002 6:00 p 77.5 77.5 78.4 76.4 0.0 1.0 W 0.00 30.113
09/07/2002 6:30 p 76.3 76.3 77.1 75.8 0.0 2.0 SE 0.00 30.113
09/07/2002 7:00 p 74.8 74.8 75.8 73.8 0.0 1.0 SE 0.00 30.119
09/07/2002 7:30 p 72.3 72.3 73.9 70.4 0.0 0.0 --- 0.00 30.123
09/07/2002 8:00 p 69.2 69.2 70.4 68.3 0.0 0.0 --- 0.00 30.132
09/07/2002 8:30 p 67.2 67.2 68.3 66.1 0.0 0.0 --- 0.00 30.138
09/07/2002 9:00 p 65.5 65.5 66.1 64.9 0.0 0.0 --- 0.00 30.144
09/07/2002 9:30 p 63.7 63.7 64.9 62.7 0.0 0.0 --- 0.00 30.147
09/07/2002 10:00 p 62.7 62.7 62.9 61.8 0.0 0.0 --- 0.00 30.159
09/07/2002 10:30 p 61.4 61.4 61.9 60.8 0.0 0.0 --- 0.00 30.160
09/07/2002 11:00 p 60.5 60.5 61.0 59.8 0.0 0.0 --- 0.00 30.165
09/07/2002 11:30 p 59.3 59.3 59.8 58.9 0.0 0.0 --- 0.00 30.168
09/08/2002 12:00 a 59.0 59.0 59.5 58.6 0.0 0.0 --- 0.00 30.169
09/08/2002 12:30 a 58.4 58.4 58.8 57.8 0.0 0.0 --- 0.00 30.163
09/08/2002 1:00 a 57.8 57.8 58.2 57.4 0.0 0.0 --- 0.00 30.163
09/08/2002 1:30 a 57.2 57.2 57.6 56.7 0.0 0.0 --- 0.00 30.166
09/08/2002 2:00 a 56.6 56.6 57.2 56.3 0.0 0.0 --- 0.00 30.167
09/08/2002 2:30 a 56.3 56.3 56.6 56.0 0.0 0.0 --- 0.00 30.163
09/08/2002 3:00 a 55.6 55.6 56.0 55.2 0.0 0.0 --- 0.00 30.156
09/08/2002 3:30 a 55.3 55.3 55.7 54.9 0.0 0.0 --- 0.00 30.153
09/08/2002 4:00 a 54.8 54.8 55.2 54.5 0.0 0.0 --- 0.00 30.146
09/08/2002 4:30 a 54.5 54.5 54.9 54.2 0.0 0.0 --- 0.00 30.144
09/08/2002 5:00 a 54.2 54.2 54.5 53.8 0.0 0.0 --- 0.00 30.148
09/08/2002 5:30 a 53.7 53.7 54.2 53.2 0.0 0.0 --- 0.00 30.145
09/08/2002 6:00 a 53.3 53.3 53.8 53.0 0.0 0.0 --- 0.00 30.150
09/08/2002 6:30 a 52.8 52.8 53.1 52.5 0.0 0.0 --- 0.00 30.151
09/08/2002 7:00 a 53.2 53.2 53.5 52.9 0.0 0.0 --- 0.00 30.158
09/08/2002 7:30 a 53.8 53.8 54.7 53.1 0.0 0.0 --- 0.00 30.162
09/08/2002 8:00 a 56.2 56.2 57.9 54.6 0.0 0.0 --- 0.00 30.165
09/08/2002 8:30 a 59.5 59.5 61.0 57.8 0.0 0.0 --- 0.00 30.168
09/08/2002 9:00 a 63.4 63.4 65.6 61.0 0.0 0.0 --- 0.00 30.170
09/08/2002 9:30 a 66.9 66.9 68.3 65.5 0.0 2.0 SE 0.00 30.167
09/08/2002 10:00 a 69.2 69.2 69.9 68.1 0.0 1.0 SE 0.00 30.165
09/08/2002 10:30 a 71.2 71.2 72.3 69.6 0.0 2.0 SE 0.00 30.158
09/08/2002 11:00 a 73.2 73.2 74.9 72.0 0.0 2.0 SE 0.00 30.158
09/08/2002 11:30 a 76.0 76.0 77.2 74.7 0.0 2.0 SE 0.00 30.146
09/08/2002 12:00 p 78.6 78.6 80.0 76.5 0.0 1.0 SE 0.00 30.136
09/08/2002 12:30 p 81.0 81.0 83.0 79.4 0.0 3.0 SE 0.00 30.125
09/08/2002 1:00 p 83.3 83.3 84.3 81.8 0.0 2.0 SE 0.00 30.111
09/08/2002 1:30 p 84.9 84.9 85.9 83.2 0.0 1.0 SSE 0.00 30.102
09/08/2002 2:00 p 85.9 85.9 87.0 84.5 0.0 2.0 SE 0.00 30.092
09/08/2002 2:30 p 86.2 86.2 87.1 84.9 0.0 1.0 SE 0.00 30.085
09/08/2002 3:00 p 86.7 86.7 88.0 85.8 0.0 2.0 SE 0.00 30.077
09/08/2002 3:30 p 86.0 86.0 87.2 84.7 0.0 2.0 ESE 0.00 30.068
09/08/2002 4:00 p 84.8 84.8 85.7 83.6 0.0 3.0 SW 0.00 30.063
09/08/2002 4:30 p 83.7 83.7 85.1 82.2 0.0 2.0 SW 0.00 30.054
09/08/2002 5:00 p 82.3 82.3 82.8 81.8 0.0 0.0 --- 0.00 30.048
09/08/2002 5:30 p 80.8 80.8 81.9 79.9 0.0 2.0 E 0.00 30.046
09/08/2002 6:00 p 79.1 79.1 79.9 78.2 0.0 2.0 E 0.00 30.044
09/08/2002 6:30 p 77.5 77.5 78.3 76.3 0.0 1.0 ESE 0.00 30.043
09/08/2002 7:00 p 76.0 76.0 76.5 75.3 0.0 2.0 E 0.00 30.045
09/08/2002 7:30 p 73.9 73.9 75.4 72.2 0.0 1.0 ESE 0.00 30.050
09/08/2002 8:00 p 71.0 71.0 72.2 70.1 0.0 0.0 --- 0.00 30.062
09/08/2002 8:30 p 70.7 70.7 73.2 69.5 0.0 0.0 --- 0.00 30.073
09/08/2002 9:00 p 69.8 69.8 71.8 67.9 0.0 1.0 --- 0.00 30.078
09/08/2002 9:30 p 66.9 66.9 68.0 65.8 0.0 0.0 --- 0.00 30.073
09/08/2002 10:00 p 65.0 65.0 65.8 64.5 0.0 0.0 --- 0.00 30.069
09/08/2002 10:30 p 63.6 63.6 65.0 62.9 0.0 0.0 --- 0.00 30.065
09/08/2002 11:00 p 62.4 62.4 63.1 61.9 0.0 0.0 --- 0.00 30.058
09/08/2002 11:30 p 61.9 61.9 62.4 61.3 0.0 0.0 --- 0.00 30.054
09/09/2002 12:00 a 60.8 60.8 61.4 60.3 0.0 0.0 --- 0.00 30.046
09/09/2002 12:30 a 60.1 60.1 60.8 59.5 0.0 0.0 --- 0.00 30.034
09/09/2002 1:00 a 59.4 59.4 60.0 59.0 0.0 0.0 --- 0.00 30.029
09/09/2002 1:30 a 58.8 58.8 59.3 58.3 0.0 0.0 --- 0.00 30.030
09/09/2002 2:00 a 58.4 58.4 58.8 58.0 0.0 0.0 --- 0.00 30.020
09/09/2002 2:30 a 58.0 58.0 58.7 57.4 0.0 0.0 --- 0.00 30.009
09/09/2002 3:00 a 57.5 57.5 57.9 57.2 0.0 0.0 --- 0.00 29.999
09/09/2002 3:30 a 57.1 57.1 57.4 56.8 0.0 0.0 --- 0.00 30.002
09/09/2002 4:00 a 56.5 56.5 57.0 56.2 0.0 0.0 --- 0.00 29.996
09/09/2002 4:30 a 56.5 56.5 56.8 56.1 0.0 0.0 --- 0.00 29.988
09/09/2002 5:00 a 55.8 55.8 56.2 55.5 0.0 0.0 --- 0.00 29.994
09/09/2002 5:30 a 55.6 55.6 56.1 55.3 0.0 0.0 --- 0.00 30.001
09/09/2002 6:00 a 55.3 55.3 55.7 54.9 0.0 0.0 --- 0.00 30.004
09/09/2002 6:30 a 55.0 55.0 55.4 54.7 0.0 0.0 --- 0.00 29.999
09/09/2002 7:00 a 54.9 54.9 55.4 54.5 0.0 0.0 --- 0.00 30.002
09/09/2002 7:30 a 55.7 55.7 56.6 54.8 0.0 0.0 --- 0.00 29.998
09/09/2002 8:00 a 57.8 57.8 59.1 56.6 0.0 0.0 --- 0.00 29.995
09/09/2002 8:30 a 61.0 61.0 63.1 59.1 0.0 0.0 --- 0.00 29.994
09/09/2002 9:00 a 65.3 65.3 67.6 63.2 0.0 0.0 --- 0.00 30.003
09/09/2002 9:30 a 69.5 69.5 71.3 67.5 0.0 1.0 ESE 0.00 29.989
09/09/2002 10:00 a 72.9 72.9 74.3 71.3 0.0 2.0 ESE 0.00 29.979
09/09/2002 10:30 a 75.9 75.9 77.3 74.3 0.0 1.0 SE 0.00 29.976
09/09/2002 11:00 a 78.7 78.7 80.0 77.4 0.0 1.0 SE 0.00 29.973
09/09/2002 11:30 a 81.2 81.2 82.4 79.9 0.0 2.0 SE 0.00 29.961
09/09/2002 12:00 p 84.0 84.0 85.5 82.2 0.0 1.0 SE 0.00 29.953
09/09/2002 12:30 p 86.4 86.4 88.0 85.3 0.0 2.0 SE 0.00 29.949
09/09/2002 1:00 p 88.5 88.5 89.3 87.3 0.0 3.0 SE 0.00 29.933
09/09/2002 1:30 p 90.0 90.0 91.3 88.8 0.0 2.0 SW 0.00 29.926
09/09/2002 2:00 p 91.0 91.0 92.0 89.7 1.0 4.0 SW 0.00 29.916
09/09/2002 2:30 p 91.2 91.2 92.6 89.9 1.0 3.0 WSW 0.00 29.901
09/09/2002 3:00 p 91.7 91.7 92.7 90.2 0.0 4.0 SE 0.00 29.894
09/09/2002 3:30 p 91.4 91.4 92.2 90.6 0.0 2.0 SE 0.00 29.877
09/09/2002 4:00 p 90.6 90.6 91.4 89.6 0.0 2.0 SE 0.00 29.863
09/09/2002 4:30 p 88.9 88.9 90.1 87.4 0.0 1.0 SE 0.00 29.855
09/09/2002 5:00 p 87.6 87.6 90.1 86.9 0.0 1.0 --- 0.00 29.851
09/09/2002 5:30 p 87.3 87.3 89.5 85.4 0.0 1.0 --- 0.00 29.845
09/09/2002 6:00 p 84.2 84.2 88.0 82.7 0.0 0.0 --- 0.00 29.841
09/09/2002 6:30 p 81.3 81.3 82.7 80.3 0.0 0.0 --- 0.00 29.837
09/09/2002 7:00 p 79.0 79.0 80.3 77.8 0.0 0.0 --- 0.00 29.837
09/09/2002 7:30 p 77.0 77.0 78.3 76.0 0.0 0.0 --- 0.00 29.841
09/09/2002 8:00 p 75.3 75.3 77.1 74.0 0.0 0.0 --- 0.00 29.853
09/09/2002 8:30 p 73.8 73.8 74.6 73.2 0.0 3.0 SSW 0.00 29.856
09/09/2002 9:00 p 74.8 74.8 75.6 74.2 0.0 1.0 WSW 0.00 29.859
09/09/2002 9:30 p 73.2 73.2 74.2 72.3 0.0 0.0 --- 0.00 29.851
09/09/2002 10:00 p 71.3 71.3 72.3 70.0 0.0 0.0 --- 0.00 29.846
09/09/2002 10:30 p 69.5 69.5 70.0 69.0 0.0 0.0 --- 0.00 29.844
09/09/2002 11:00 p 68.2 68.2 69.0 67.6 0.0 0.0 --- 0.00 29.845
09/09/2002 11:30 p 67.2 67.2 67.6 67.0 0.0 0.0 --- 0.00 29.841
09/10/2002 12:00 a 66.7 66.7 67.3 66.2 0.0 0.0 --- 0.00 29.838
09/10/2002 12:30 a 66.0 66.0 66.4 65.6 0.0 0.0 --- 0.00 29.839
09/10/2002 1:00 a 65.2 65.2 65.8 64.6 0.0 0.0 --- 0.00 29.832
09/10/2002 1:30 a 64.7 64.7 65.0 64.0 0.0 0.0 --- 0.00 29.823
09/10/2002 2:00 a 63.9 63.9 64.2 63.6 0.0 0.0 --- 0.00 29.814
09/10/2002 2:30 a 63.4 63.4 63.9 63.0 0.0 0.0 --- 0.00 29.808
09/10/2002 3:00 a 63.1 63.1 63.5 62.8 0.0 0.0 --- 0.00 29.800
09/10/2002 3:30 a 62.6 62.6 63.0 62.4 0.0 0.0 --- 0.00 29.791
09/10/2002 4:00 a 62.5 62.5 62.7 62.2 0.0 0.0 --- 0.00 29.781
09/10/2002 4:30 a 62.6 62.6 62.9 62.4 0.0 0.0 --- 0.00 29.779
09/10/2002 5:00 a 63.1 63.1 63.4 62.8 0.0 0.0 --- 0.00 29.774
09/10/2002 5:30 a 63.5 63.5 63.9 63.0 0.0 0.0 --- 0.00 29.777
09/10/2002 6:00 a 63.5 63.5 63.7 63.3 0.0 0.0 --- 0.00 29.769
09/10/2002 6:30 a 63.7 63.7 64.3 63.4 0.0 0.0 --- 0.00 29.769
09/10/2002 7:00 a 63.8 63.8 64.3 63.4 0.0 0.0 --- 0.00 29.772
09/10/2002 7:30 a 64.9 64.9 65.6 64.2 0.0 0.0 --- 0.00 29.767
09/10/2002 8:00 a 66.8 66.8 68.7 65.3 0.0 0.0 --- 0.00 29.765
09/10/2002 8:30 a 69.7 69.7 70.4 68.7 0.0 0.0 --- 0.00 29.756
09/10/2002 9:00 a 71.2 71.2 71.9 70.4 0.0 0.0 --- 0.00 29.754
09/10/2002 9:30 a 72.8 72.8 74.8 71.8 0.0 2.0 WSW 0.00 29.744
09/10/2002 10:00 a 74.6 74.6 76.5 73.5 0.0 1.0 WSW 0.00 29.738
09/10/2002 10:30 a 78.5 78.5 80.2 76.6 0.0 1.0 --- 0.00 29.725
09/10/2002 11:00 a 81.1 81.1 82.2 80.2 0.0 2.0 WSW 0.00 29.718
09/10/2002 11:30 a 82.8 82.8 84.3 81.5 0.0 1.0 W 0.00 29.710
09/10/2002 12:00 p 85.3 85.3 86.5 84.0 0.0 2.0 W 0.00 29.696
09/10/2002 12:30 p 87.3 87.3 88.8 85.5 0.0 2.0 W 0.00 29.682
09/10/2002 1:00 p 89.1 89.1 90.4 87.8 0.0 3.0 W 0.00 29.668
09/10/2002 1:30 p 90.2 90.2 90.9 88.6 0.0 2.0 SSE 0.00 29.652
09/10/2002 2:00 p 90.2 90.2 91.7 87.1 0.0 2.0 W 0.00 29.633
09/10/2002 2:30 p 87.0 87.0 90.2 85.2 0.0 2.0 W 0.00 29.618
09/10/2002 3:00 p 91.0 91.0 92.3 89.3 0.0 2.0 W 0.00 29.603
09/10/2002 3:30 p 89.2 89.2 90.5 87.7 0.0 1.0 W 0.00 29.587
09/10/2002 4:00 p 87.8 87.8 88.3 87.4 0.0 1.0 --- 0.00 29.572
09/10/2002 4:30 p 86.3 86.3 88.3 85.4 0.0 0.0 --- 0.00 29.566
09/10/2002 5:00 p 85.4 85.4 85.8 85.2 0.0 1.0 --- 0.00 29.557
09/10/2002 5:30 p 84.7 84.7 85.5 83.8 0.0 0.0 --- 0.00 29.547
09/10/2002 6:00 p 83.2 83.2 84.3 81.6 0.0 0.0 --- 0.00 29.547
09/10/2002 6:30 p 80.8 80.8 81.7 80.0 0.0 0.0 --- 0.00 29.535
09/10/2002 7:00 p 80.4 80.4 82.7 79.7 0.0 1.0 W 0.00 29.523
09/10/2002 7:30 p 82.1 82.1 83.7 81.2 0.0 0.0 --- 0.00 29.513
09/10/2002 8:00 p 80.0 80.0 82.3 78.4 0.0 2.0 W 0.00 29.513
09/10/2002 8:30 p 77.2 77.2 78.4 76.7 0.0 0.0 --- 0.00 29.508
09/10/2002 9:00 p 76.1 76.1 76.8 75.0 0.0 0.0 --- 0.00 29.496
09/10/2002 9:30 p 74.4 74.4 75.0 73.5 0.0 0.0 --- 0.00 29.487
09/10/2002 10:00 p 73.3 73.3 73.5 73.1 0.0 1.0 SSW 0.00 29.487
09/10/2002 10:30 p 73.4 73.4 73.5 73.2 0.0 1.0 SSW 0.00 29.467
09/10/2002 11:00 p 73.1 73.1 73.5 72.6 0.0 0.0 --- 0.00 29.461
09/10/2002 11:30 p 72.6 72.6 73.0 72.1 0.0 0.0 --- 0.00 29.446
09/11/2002 12:00 a 71.9 71.9 72.1 71.8 0.0 0.0 --- 0.00 29.432
09/11/2002 12:30 a 71.6 71.6 72.0 71.1 0.0 0.0 --- 0.00 29.424
09/11/2002 1:00 a 71.2 71.2 71.5 71.0 0.0 0.0 --- 0.00 29.411
09/11/2002 1:30 a 71.1 71.1 71.4 70.6 0.0 0.0 --- 0.00 29.399
09/11/2002 2:00 a 70.9 70.9 71.1 70.6 0.0 0.0 --- 0.00 29.377
09/11/2002 2:30 a 70.5 70.5 70.8 70.2 0.0 1.0 SSW 0.00 29.362
09/11/2002 3:00 a 70.8 70.8 71.1 70.4 0.0 2.0 SSW 0.00 29.340
09/11/2002 3:30 a 70.5 70.5 70.7 70.2 0.0 0.0 --- 0.00 29.327
09/11/2002 4:00 a 70.1 70.1 70.3 69.9 0.0 0.0 --- 0.00 29.321
09/11/2002 4:30 a 69.8 69.8 70.1 69.5 0.0 0.0 --- 0.00 29.307
09/11/2002 5:00 a 69.5 69.5 69.6 69.4 0.0 1.0 SSW 0.00 29.305
09/11/2002 5:30 a 69.2 69.2 69.5 69.0 0.0 1.0 SSW 0.00 29.286
09/11/2002 6:00 a 69.0 69.0 69.2 68.8 0.0 1.0 SSW 0.00 29.290
09/11/2002 6:30 a 68.5 68.5 68.9 67.9 0.0 2.0 SSW 0.00 29.278
09/11/2002 7:00 a 67.5 67.5 68.0 66.9 0.0 2.0 SSW 0.00 29.272
09/11/2002 7:30 a 68.8 68.8 72.2 66.8 0.0 6.0 WSW 0.00 29.262
09/11/2002 8:00 a 72.7 72.7 74.3 71.2 1.0 6.0 WSW 0.00 29.261
09/11/2002 8:30 a 74.9 74.9 75.4 74.2 2.0 9.0 WSW 0.00 29.267
09/11/2002 9:00 a 75.7 75.7 76.1 75.2 2.0 13.0 WSW 0.00 29.278
09/11/2002 9:30 a 76.3 76.3 76.7 75.9 3.0 11.0 WSW 0.00 29.288
09/11/2002 10:00 a 76.9 76.9 77.5 76.5 2.0 13.0 WSW 0.00 29.294
09/11/2002 10:30 a 77.0 77.0 77.5 76.6 3.0 11.0 WSW 0.00 29.296
09/11/2002 11:00 a 76.9 76.9 77.6 75.6 3.0 14.0 WSW 0.00 29.312
09/11/2002 11:30 a 75.7 75.7 76.7 74.5 3.0 11.0 WSW 0.00 29.322
09/11/2002 12:00 p 76.2 76.2 77.4 74.7 2.0 8.0 WSW 0.00 29.338
09/11/2002 12:30 p 73.9 73.9 75.2 72.7 3.0 13.0 WSW 0.00 29.352
09/11/2002 1:00 p 73.6 73.6 74.9 71.7 2.0 11.0 WSW 0.00 29.365
09/11/2002 1:30 p 73.3 72.3 74.6 71.4 5.0 21.0 WSW 0.00 29.384
09/11/2002 2:00 p 72.9 72.9 74.4 70.9 4.0 16.0 SW 0.00 29.399
09/11/2002 2:30 p 73.4 73.4 74.9 71.6 3.0 14.0 SW 0.00 29.406
09/11/2002 3:00 p 74.1 74.1 75.5 72.8 3.0 14.0 SW 0.00 29.407
09/11/2002 3:30 p 73.3 73.3 74.7 71.9 3.0 16.0 SW 0.00 29.421
09/11/2002 4:00 p 73.6 73.6 74.0 73.0 3.0 16.0 W 0.00 29.434
09/11/2002 4:30 p 73.5 73.5 74.4 72.9 3.0 13.0 SW 0.00 29.440
09/11/2002 5:00 p 73.2 73.2 73.5 73.0 3.0 17.0 WNW 0.00 29.447
09/11/2002 5:30 p 72.7 72.7 73.1 72.4 3.0 14.0 SW 0.00 29.467
09/11/2002 6:00 p 71.9 71.9 72.5 71.4 3.0 10.0 SW 0.00 29.488
09/11/2002 6:30 p 71.1 71.1 71.4 70.8 2.0 12.0 SW 0.00 29.510
09/11/2002 7:00 p 70.2 70.2 70.8 69.7 2.0 15.0 SW 0.00 29.524
09/11/2002 7:30 p 69.4 69.4 69.8 68.6 2.0 12.0 SW 0.00 29.547
09/11/2002 8:00 p 68.1 68.1 68.7 67.6 1.0 6.0 SW 0.00 29.563
09/11/2002 8:30 p 67.5 67.5 68.0 66.8 1.0 6.0 SW 0.00 29.585
09/11/2002 9:00 p 67.0 67.0 67.4 66.6 1.0 6.0 SW 0.00 29.609
09/11/2002 9:30 p 66.4 66.4 66.7 65.8 1.0 8.0 SW 0.00 29.615
09/11/2002 10:00 p 65.5 65.5 66.2 64.3 1.0 6.0 SW 0.00 29.629
09/11/2002 10:30 p 64.8 64.8 65.2 64.1 0.0 5.0 SSW 0.00 29.642
09/11/2002 11:00 p 64.1 64.1 64.7 63.5 0.0 2.0 SW 0.00 29.652
09/11/2002 11:30 p 62.8 62.8 63.5 61.8 0.0 1.0 --- 0.00 29.667
09/12/2002 12:00 a 61.6 61.6 62.3 61.2 0.0 0.0 --- 0.00 29.674
09/12/2002 12:30 a 60.9 60.9 61.3 60.0 0.0 2.0 SW 0.00 29.681
09/12/2002 1:00 a 59.0 59.0 61.1 57.7 0.0 3.0 SW 0.00 29.693
09/12/2002 1:30 a 60.4 60.4 61.5 59.1 0.0 3.0 SW 0.00 29.710
09/12/2002 2:00 a 59.0 59.0 60.1 58.0 0.0 1.0 SW 0.00 29.728
09/12/2002 2:30 a 58.8 58.8 59.7 57.6 0.0 3.0 SW 0.00 29.735
09/12/2002 3:00 a 56.9 56.9 58.0 56.2 0.0 1.0 SW 0.00 29.739
09/12/2002 3:30 a 58.8 58.8 59.3 56.5 2.0 8.0 SW 0.00 29.747
09/12/2002 4:00 a 57.9 57.9 58.7 56.2 0.0 3.0 SW 0.00 29.758
09/12/2002 4:30 a 57.2 57.2 57.6 56.2 0.0 4.0 SW 0.00 29.766
09/12/2002 5:00 a 56.2 56.2 57.2 54.9 0.0 3.0 SW 0.00 29.789
09/12/2002 5:30 a 55.7 55.7 56.1 55.3 0.0 3.0 S 0.00 29.793
09/12/2002 6:00 a 54.9 54.9 55.5 53.7 0.0 3.0 SSW 0.00 29.811
09/12/2002 6:30 a 54.1 54.1 54.8 53.3 0.0 3.0 SW 0.00 29.820
09/12/2002 7:00 a 54.2 54.2 54.7 54.0 0.0 3.0 SW 0.00 29.832
09/12/2002 7:30 a 53.9 53.9 54.7 53.1 0.0 2.0 SW 0.00 29.840
09/12/2002 8:00 a 55.1 55.1 56.0 53.4 0.0 4.0 SSW 0.00 29.841
09/12/2002 8:30 a 56.6 56.6 57.3 56.0 1.0 6.0 SW 0.00 29.847
09/12/2002 9:00 a 58.4 58.4 59.4 57.3 1.0 6.0 SW 0.00 29.853
09/12/2002 9:30 a 59.8 59.8 60.4 59.2 1.0 8.0 SW 0.00 29.856
09/12/2002 10:00 a 60.9 60.9 62.0 60.0 1.0 6.0 SW 0.00 29.859
09/12/2002 10:30 a 62.4 62.4 63.5 61.5 1.0 8.0 SW 0.00 29.865
09/12/2002 11:00 a 64.1 64.1 64.9 63.1 1.0 7.0 SW 0.00 29.866
09/12/2002 11:30 a 65.6 65.6 67.1 64.4 2.0 6.0 SW 0.00 29.862
09/12/2002 12:00 p 67.6 67.6 69.1 66.6 1.0 7.0 SW 0.00 29.853
09/12/2002 12:30 p 70.0 70.0 71.6 68.6 1.0 7.0 SW 0.00 29.853
09/12/2002 1:00 p 71.1 71.1 72.6 70.1 2.0 7.0 SW 0.00 29.847
09/12/2002 1:30 p 72.4 72.4 74.2 70.9 2.0 9.0 SW 0.00 29.844
09/12/2002 2:00 p 73.3 73.3 74.7 72.3 2.0 9.0 SW 0.00 29.834
09/12/2002 2:30 p 74.0 74.0 75.3 73.0 2.0 7.0 SW 0.00 29.835
09/12/2002 3:00 p 74.9 74.9 75.8 74.1 2.0 7.0 SW 0.00 29.833
09/12/2002 3:30 p 75.0 75.0 75.9 74.1 1.0 6.0 SW 0.00 29.834
09/12/2002 4:00 p 74.8 74.8 75.6 74.3 1.0 5.0 SW 0.00 29.835
09/12/2002 4:30 p 73.8 73.8 74.6 73.2 0.0 5.0 SW 0.00 29.829
09/12/2002 5:00 p 73.1 73.1 73.5 72.7 1.0 6.0 SW 0.00 29.834
09/12/2002 5:30 p 72.3 72.3 73.0 71.5 0.0 5.0 SW 0.00 29.841
09/12/2002 6:00 p 71.7 71.7 72.1 71.2 1.0 5.0 SW 0.00 29.852
09/12/2002 6:30 p 70.0 70.0 71.2 67.8 0.0 2.0 SW 0.00 29.857
09/12/2002 7:00 p 66.2 66.2 67.8 64.6 0.0 0.0 --- 0.00 29.870
09/12/2002 7:30 p 62.8 62.8 64.6 61.8 0.0 0.0 --- 0.00 29.872
09/12/2002 8:00 p 60.3 60.3 61.9 58.9 0.0 0.0 --- 0.00 29.880
09/12/2002 8:30 p 58.4 58.4 59.2 57.7 0.0 0.0 --- 0.00 29.889
09/12/2002 9:00 p 57.1 57.1 57.9 56.6 0.0 0.0 --- 0.00 29.903
09/12/2002 9:30 p 55.8 55.8 56.9 54.9 0.0 0.0 --- 0.00 29.915
09/12/2002 10:00 p 55.1 55.1 55.6 54.3 0.0 0.0 --- 0.00 29.921
09/12/2002 10:30 p 54.1 54.1 54.6 53.6 0.0 0.0 --- 0.00 29.921
09/12/2002 11:00 p 53.8 53.8 54.2 53.2 0.0 0.0 --- 0.00 29.923
09/12/2002 11:30 p 52.8 52.8 53.2 52.4 0.0 0.0 --- 0.00 29.926
09/13/2002 12:00 a 52.3 52.3 52.8 51.8 0.0 0.0 --- 0.00 29.928
09/13/2002 12:30 a 51.6 51.6 52.0 51.3 0.0 0.0 --- 0.00 29.933
09/13/2002 1:00 a 51.6 51.6 52.0 51.0 0.0 0.0 --- 0.00 29.936
09/13/2002 1:30 a 51.3 51.3 51.9 50.5 0.0 0.0 --- 0.00 29.939
09/13/2002 2:00 a 50.5 50.5 50.9 50.0 0.0 0.0 --- 0.00 29.940
09/13/2002 2:30 a 50.1 50.1 50.7 49.7 0.0 0.0 --- 0.00 29.936
09/13/2002 3:00 a 49.9 49.9 50.2 49.7 0.0 0.0 --- 0.00 29.934
09/13/2002 3:30 a 49.5 49.5 50.2 49.0 0.0 0.0 --- 0.00 29.933
09/13/2002 4:00 a 49.2 49.2 49.6 48.8 0.0 0.0 --- 0.00 29.930
09/13/2002 4:30 a 48.7 48.7 49.3 48.3 0.0 0.0 --- 0.00 29.931
09/13/2002 5:00 a 48.5 48.5 49.0 48.2 0.0 0.0 --- 0.00 29.935
09/13/2002 5:30 a 48.2 48.2 48.7 47.8 0.0 0.0 --- 0.00 29.938
09/13/2002 6:00 a 50.8 50.8 58.3 47.5 0.0 0.0 --- 0.00 29.941
09/13/2002 6:30 a 50.4 50.4 58.6 47.2 0.0 0.0 --- 0.00 29.945
09/13/2002 7:00 a 47.9 47.9 48.4 47.2 0.0 0.0 --- 0.00 29.954
09/13/2002 7:30 a 48.9 48.9 49.7 48.4 0.0 0.0 --- 0.00 29.954
09/13/2002 8:00 a 51.7 51.7 53.7 49.7 0.0 0.0 --- 0.00 29.955
09/13/2002 8:30 a 55.6 55.6 57.7 53.7 0.0 0.0 --- 0.00 29.955
09/13/2002 9:00 a 59.4 59.4 61.2 57.7 0.0 1.0 --- 0.00 29.964
09/13/2002 9:30 a 63.0 63.0 64.8 61.2 0.0 1.0 SW 0.00 29.976
09/13/2002 10:00 a 65.9 65.9 67.4 64.7 0.0 1.0 SW 0.00 29.970
09/13/2002 10:30 a 68.9 68.9 70.4 67.3 0.0 1.0 SSW 0.00 29.959
09/13/2002 11:00 a 71.8 71.8 73.1 70.4 0.0 2.0 SW 0.00 29.949
09/13/2002 11:30 a 74.4 74.4 75.9 72.9 0.0 3.0 SW 0.00 29.941
09/13/2002 12:00 p 77.3 77.3 78.8 75.7 0.0 5.0 WSW 0.00 29.927
09/13/2002 12:30 p 79.8 79.8 81.4 78.2 0.0 3.0 WSW 0.00 29.920
09/13/2002 1:00 p 81.7 81.7 82.7 80.7 0.0 5.0 WSW 0.00 29.912
09/13/2002 1:30 p 83.0 83.0 83.9 82.2 0.0 5.0 SW 0.00 29.899
09/13/2002 2:00 p 83.3 83.3 84.2 82.1 1.0 5.0 WSW 0.00 29.886
09/13/2002 2:30 p 84.2 84.2 85.0 83.2 0.0 4.0 SW 0.00 29.882
09/13/2002 3:00 p 84.5 84.5 85.1 83.3 0.0 5.0 SW 0.00 29.872
09/13/2002 3:30 p 84.4 84.4 85.2 83.6 0.0 4.0 SW 0.00 29.863
09/13/2002 4:00 p 83.2 83.2 83.7 82.5 0.0 4.0 SW 0.00 29.862
09/13/2002 4:30 p 81.8 81.8 82.5 81.0 0.0 3.0 NW 0.00 29.867
09/13/2002 5:00 p 80.7 80.7 81.5 80.2 0.0 3.0 NE 0.00 29.863
09/13/2002 5:30 p 80.0 80.0 80.6 79.0 0.0 3.0 ENE 0.00 29.868
09/13/2002 6:00 p 78.3 78.3 79.2 77.4 0.0 2.0 ENE 0.00 29.869
09/13/2002 6:30 p 76.0 76.0 77.4 74.6 0.0 0.0 --- 0.00 29.876
09/13/2002 7:00 p 73.3 73.3 74.6 72.0 0.0 0.0 --- 0.00 29.887
09/13/2002 7:30 p 71.0 71.0 72.1 69.8 0.0 0.0 --- 0.00 29.894
09/13/2002 8:00 p 69.1 69.1 69.8 68.1 0.0 0.0 --- 0.00 29.904
09/13/2002 8:30 p 67.2 67.2 68.1 66.4 0.0 0.0 --- 0.00 29.916
09/13/2002 9:00 p 66.1 66.1 66.7 65.5 0.0 0.0 --- 0.00 29.928
09/13/2002 9:30 p 64.9 64.9 65.5 64.6 0.0 0.0 --- 0.00 29.937
09/13/2002 10:00 p 64.3 64.3 64.7 63.9 0.0 0.0 --- 0.00 29.943
09/13/2002 10:30 p 66.2 66.2 70.3 63.6 0.0 0.0 --- 0.00 29.948
09/13/2002 11:00 p 67.2 67.2 70.5 63.5 0.0 0.0 --- 0.00 29.955
09/13/2002 11:30 p 62.9 62.9 63.6 62.4 0.0 0.0 --- 0.00 29.961
09/14/2002 12:00 a 62.6 62.6 62.9 62.3 0.0 0.0 --- 0.00 29.964
09/14/2002 12:30 a 62.4 62.4 62.9 61.8 0.0 0.0 --- 0.00 29.965
09/14/2002 1:00 a 61.6 61.6 61.9 61.2 0.0 0.0 --- 0.00 29.972
09/14/2002 1:30 a 61.0 61.0 61.6 60.7 0.0 0.0 --- 0.00 29.976
09/14/2002 2:00 a 60.8 60.8 61.1 60.7 0.0 0.0 --- 0.00 29.977
09/14/2002 2:30 a 60.8 60.8 61.2 60.3 0.0 0.0 --- 0.00 29.972
09/14/2002 3:00 a 60.3 60.3 60.7 60.0 0.0 0.0 --- 0.00 29.972
09/14/2002 3:30 a 59.4 59.4 60.2 59.0 0.0 0.0 --- 0.00 29.976
09/14/2002 4:00 a 59.0 59.0 59.3 58.5 0.0 0.0 --- 0.00 29.979
09/14/2002 4:30 a 58.6 58.6 58.9 58.4 0.0 0.0 --- 0.00 29.984
09/14/2002 5:00 a 58.6 58.6 58.9 58.2 0.0 0.0 --- 0.00 29.985
09/14/2002 5:30 a 58.1 58.1 58.4 57.8 0.0 0.0 --- 0.00 29.987
09/14/2002 6:00 a 58.0 58.0 58.4 57.6 0.0 0.0 --- 0.00 29.994
09/14/2002 6:30 a 57.5 57.5 57.8 57.1 0.0 0.0 --- 0.00 30.007
09/14/2002 7:00 a 57.0 57.0 57.4 56.7 0.0 0.0 --- 0.00 30.019
09/14/2002 7:30 a 57.3 57.3 58.3 56.8 0.0 0.0 --- 0.00 30.025
09/14/2002 8:00 a 59.4 59.4 60.6 58.2 0.0 0.0 --- 0.00 30.030
09/14/2002 8:30 a 62.5 62.5 64.3 60.6 0.0 0.0 --- 0.00 30.038
09/14/2002 9:00 a 65.8 65.8 67.3 64.2 0.0 0.0 --- 0.00 30.036
09/14/2002 9:30 a 69.4 69.4 70.3 67.3 0.0 0.0 --- 0.00 30.035
09/14/2002 10:00 a 71.6 71.6 72.8 70.3 0.0 1.0 ENE 0.00 30.031
09/14/2002 10:30 a 73.2 73.2 74.2 72.2 0.0 1.0 ENE 0.00 30.032
09/14/2002 11:00 a 74.7 74.7 75.7 73.9 0.0 1.0 --- 0.00 30.022
09/14/2002 11:30 a 76.8 76.8 78.6 75.5 0.0 1.0 ENE 0.00 30.017
09/14/2002 12:00 p 79.5 79.5 80.8 78.0 0.0 3.0 ENE 0.00 30.010
09/14/2002 12:30 p 80.8 80.8 82.2 79.6 0.0 2.0 NNE 0.00 30.009
09/14/2002 1:00 p 82.6 82.6 83.8 81.4 0.0 3.0 ENE 0.00 30.006
09/14/2002 1:30 p 83.2 83.2 84.2 82.2 0.0 1.0 --- 0.00 29.995
09/14/2002 2:00 p 82.9 82.9 84.9 81.5 0.0 1.0 --- 0.00 29.988
09/14/2002 2:30 p 84.4 84.4 86.2 82.9 0.0 1.0 --- 0.00 29.977
09/14/2002 3:00 p 85.0 85.0 86.2 82.8 0.0 1.0 --- 0.00 29.970
09/14/2002 3:30 p 85.7 85.7 87.4 84.1 0.0 0.0 --- 0.00 29.964
09/14/2002 4:00 p 85.3 85.3 87.9 83.5 0.0 0.0 --- 0.00 29.957
09/14/2002 4:30 p 85.0 85.0 86.4 84.1 0.0 0.0 --- 0.00 29.955
09/14/2002 5:00 p 82.7 82.7 86.2 81.2 0.0 0.0 --- 0.00 29.954
09/14/2002 5:30 p 80.4 80.4 81.6 79.8 0.0 0.0 --- 0.00 29.956
09/14/2002 6:00 p 78.9 78.9 80.1 77.6 0.0 0.0 --- 0.00 29.965
09/14/2002 6:30 p 76.8 76.8 77.6 76.1 0.0 0.0 --- 0.00 29.979
09/14/2002 7:00 p 76.0 76.0 76.3 75.6 0.0 0.0 --- 0.00 29.977
09/14/2002 7:30 p 75.2 75.2 75.6 75.0 0.0 1.0 --- 0.00 29.977
09/14/2002 8:00 p 74.9 74.9 75.2 74.8 0.0 1.0 NNW 0.00 29.981
09/14/2002 8:30 p 74.7 74.7 74.8 74.5 0.0 1.0 --- 0.00 29.990
09/14/2002 9:00 p 73.5 73.5 74.6 73.0 0.0 1.0 --- 0.00 29.988
09/14/2002 9:30 p 73.1 73.1 73.3 72.9 0.0 1.0 --- 0.00 29.991
09/14/2002 10:00 p 73.2 73.2 73.3 73.0 0.0 1.0 --- 0.00 29.990
09/14/2002 10:30 p 72.9 72.9 73.2 72.7 0.0 1.0 --- 0.00 29.988
09/14/2002 11:00 p 72.7 72.7 72.9 72.5 0.0 1.0 WNW 0.00 29.990
09/14/2002 11:30 p 72.3 72.3 72.6 72.0 0.0 1.0 NW 0.00 29.985
09/15/2002 12:00 a 71.9 71.9 72.2 71.7 0.0 1.0 WNW 0.00 29.981
09/15/2002 12:30 a 71.9 71.9 72.3 71.7 0.0 1.0 NW 0.00 29.974
09/15/2002 1:00 a 72.0 72.0 72.3 71.6 0.0 1.0 NW 0.00 29.972
09/15/2002 1:30 a 71.8 71.8 72.0 71.6 0.0 2.0 NW 0.00 29.971
09/15/2002 2:00 a 71.9 71.9 72.3 71.6 0.0 1.0 NW 0.00 29.973
09/15/2002 2:30 a 71.7 71.7 72.2 71.2 0.0 0.0 --- 0.00 29.967
09/15/2002 3:00 a 71.0 71.0 71.2 70.9 0.0 1.0 NW 0.00 29.960
09/15/2002 3:30 a 71.2 71.2 71.5 70.9 0.0 2.0 WSW 0.00 29.955
09/15/2002 4:00 a 71.5 71.5 71.8 71.1 0.0 0.0 --- 0.00 29.958
09/15/2002 4:30 a 71.6 71.6 71.8 71.4 0.0 1.0 WSW 0.00 29.962
09/15/2002 5:00 a 71.7 71.7 71.9 71.7 0.0 0.0 --- 0.00 29.956
09/15/2002 5:30 a 71.7 71.7 71.9 71.5 0.0 1.0 WSW 0.00 29.951
09/15/2002 6:00 a 71.7 71.7 71.9 71.5 0.0 2.0 WSW 0.00 29.953
09/15/2002 6:30 a 71.7 71.7 71.8 71.6 0.0 1.0 WSW 0.00 29.955
09/15/2002 7:00 a 71.7 71.7 71.8 71.6 0.0 1.0 --- 0.00 29.964
09/15/2002 7:30 a 71.9 71.9 72.0 71.7 0.0 1.0 --- 0.00 29.964
09/15/2002 8:00 a 72.0 72.0 72.2 71.8 0.0 1.0 W 0.00 29.968
09/15/2002 8:30 a 72.3 72.3 73.1 71.7 0.0 1.0 --- 0.00 29.973
09/15/2002 9:00 a 73.3 73.3 73.6 73.0 0.0 1.0 W 0.00 29.973
09/15/2002 9:30 a 73.9 73.9 74.3 73.5 0.0 1.0 W 0.00 29.974
09/15/2002 10:00 a 76.3 76.3 77.9 73.6 0.0 2.0 W 0.00 29.964
09/15/2002 10:30 a 77.7 77.7 78.7 76.4 0.0 1.0 W 0.00 29.965
09/15/2002 11:00 a 79.4 79.4 82.6 76.7 0.0 1.0 W 0.00 29.954
09/15/2002 11:30 a 79.1 79.1 81.8 77.5 0.0 1.0 ESE 0.00 29.947
09/15/2002 12:00 p 78.4 78.4 79.7 77.5 0.0 1.0 ESE 0.00 29.936
09/15/2002 12:30 p 77.5 77.5 79.3 76.2 0.0 1.0 --- 0.00 29.934
09/15/2002 1:00 p 75.3 75.3 76.2 74.5 0.0 2.0 ESE 0.03 29.934
09/15/2002 1:30 p 76.7 76.7 78.8 74.5 0.0 1.0 --- 0.01 29.924
09/15/2002 2:00 p 78.0 78.0 79.0 77.2 0.0 1.0 ENE 0.00 29.910
09/15/2002 2:30 p 79.2 79.2 79.8 78.3 0.0 2.0 SSE 0.00 29.903
09/15/2002 3:00 p 77.3 77.3 78.3 76.5 0.0 1.0 SSE 0.00 29.903
09/15/2002 3:30 p 77.5 77.5 78.5 76.6 0.0 1.0 SSE 0.00 29.900
09/15/2002 4:00 p 77.3 77.3 79.1 76.0 0.0 1.0 --- 0.01 29.893
09/15/2002 4:30 p 73.1 73.1 77.2 71.0 0.0 4.0 SW 0.26 29.919
09/15/2002 5:00 p 71.6 71.6 72.2 71.0 0.0 0.0 --- 0.00 29.917
09/15/2002 5:30 p 71.7 71.7 72.0 71.4 0.0 0.0 --- 0.00 29.912
09/15/2002 6:00 p 71.6 71.6 71.7 71.5 0.0 0.0 --- 0.00 29.917
09/15/2002 6:30 p 74.4 74.4 77.3 71.5 0.0 0.0 --- 0.02 29.913
09/15/2002 7:00 p 71.9 71.9 74.9 71.1 0.0 0.0 --- 0.02 29.910
09/15/2002 7:30 p 71.1 71.1 71.3 70.9 0.0 0.0 --- 0.01 29.910
09/15/2002 8:00 p 70.8 70.8 71.0 70.7 0.0 0.0 --- 0.01 29.908
09/15/2002 8:30 p 70.7 70.7 70.8 70.6 0.0 0.0 --- 0.01 29.905
09/15/2002 9:00 p 70.6 70.6 70.7 70.4 0.0 0.0 --- 0.00 29.901
09/15/2002 9:30 p 70.2 70.2 70.4 70.0 0.0 0.0 --- 0.00 29.897
09/15/2002 10:00 p 69.9 69.9 70.1 69.8 0.0 0.0 --- 0.00 29.893
09/15/2002 10:30 p 70.1 70.1 70.4 69.8 0.0 0.0 --- 0.01 29.889
09/15/2002 11:00 p 70.8 70.8 71.1 70.4 0.0 0.0 --- 0.02 29.885
09/15/2002 11:30 p 71.0 71.0 71.1 70.9 0.0 1.0 W 0.08 29.875
09/16/2002 12:00 a 71.0 71.0 71.0 70.8 0.0 2.0 N 0.04 29.858
09/16/2002 12:30 a 70.3 70.3 70.7 70.0 0.0 1.0 WNW 0.00 29.849
09/16/2002 1:00 a 69.8 69.8 70.0 69.6 0.0 1.0 --- 0.00 29.848
09/16/2002 1:30 a 69.7 69.7 69.9 69.5 0.0 2.0 W 0.00 29.843
09/16/2002 2:00 a 69.9 69.9 70.0 69.8 0.0 0.0 --- 0.00 29.831
09/16/2002 2:30 a 70.0 70.0 70.1 69.9 0.0 1.0 W 0.01 29.821
09/16/2002 3:00 a 70.1 70.1 70.2 70.0 0.0 0.0 --- 0.02 29.810
09/16/2002 3:30 a 70.1 70.1 70.2 70.1 0.0 0.0 --- 0.00 29.807
09/16/2002 4:00 a 70.2 70.2 70.3 70.1 0.0 0.0 --- 0.02 29.804
09/16/2002 4:30 a 70.3 70.3 70.3 70.2 0.0 0.0 --- 0.00 29.806
09/16/2002 5:00 a 70.3 70.3 70.5 70.2 0.0 0.0 --- 0.00 29.799
09/16/2002 5:30 a 70.4 70.4 70.5 70.4 0.0 0.0 --- 0.00 29.798
09/16/2002 6:00 a 70.4 70.4 70.5 70.4 0.0 0.0 --- 0.00 29.792
09/16/2002 6:30 a 70.5 70.5 70.5 70.4 0.0 0.0 --- 0.00 29.799
09/16/2002 7:00 a 70.4 70.4 70.5 70.4 0.0 0.0 --- 0.01 29.804
09/16/2002 7:30 a 70.5 70.5 70.6 70.4 0.0 0.0 --- 0.00 29.807
09/16/2002 8:00 a 70.6 70.6 70.9 70.5 0.0 0.0 --- 0.00 29.809
09/16/2002 8:30 a 70.8 70.8 71.0 70.7 0.0 0.0 --- 0.00 29.814
09/16/2002 9:00 a 71.2 71.2 71.5 71.0 0.0 1.0 --- 0.00 29.819
09/16/2002 9:30 a 71.4 71.4 71.9 71.2 0.0 0.0 --- 0.00 29.818
09/16/2002 10:00 a 71.8 71.8 72.1 71.6 0.0 0.0 --- 0.00 29.815
09/16/2002 10:30 a 73.6 73.6 75.1 72.1 0.0 1.0 W 0.00 29.814
09/16/2002 11:00 a 74.2 74.2 75.0 73.6 0.0 1.0 NNW 0.00 29.816
09/16/2002 11:30 a 74.7 74.7 75.9 73.5 0.0 1.0 --- 0.00 29.807
09/16/2002 12:00 p 77.1 77.1 77.7 76.0 0.0 1.0 N 0.00 29.801
09/16/2002 12:30 p 78.3 78.3 81.3 76.6 0.0 2.0 N 0.00 29.798
09/16/2002 1:00 p 78.7 78.7 81.7 77.1 0.0 2.0 NW 0.00 29.792
09/16/2002 1:30 p 79.5 79.5 81.3 77.7 0.0 2.0 NW 0.00 29.790
09/16/2002 2:00 p 79.9 79.9 82.2 78.7 0.0 3.0 WSW 0.00 29.784
09/16/2002 2:30 p 79.0 79.0 79.6 78.3 0.0 2.0 W 0.00 29.776
09/16/2002 3:00 p 81.1 81.1 82.8 79.1 0.0 4.0 NNE 0.00 29.765
09/16/2002 3:30 p 82.4 82.4 83.0 81.5 0.0 2.0 S 0.00 29.757
09/16/2002 4:00 p 82.0 82.0 82.7 81.1 0.0 3.0 E 0.00 29.749
09/16/2002 4:30 p 80.9 80.9 82.1 78.8 0.0 3.0 WSW 0.00 29.745
09/16/2002 5:00 p 79.8 79.8 80.5 78.8 0.0 2.0 ESE 0.00 29.741
09/16/2002 5:30 p 79.7 79.7 80.5 79.0 1.0 5.0 SW 0.00 29.754
09/16/2002 6:00 p 78.8 78.8 80.1 78.0 1.0 6.0 SW 0.00 29.763
09/16/2002 6:30 p 77.5 77.5 78.3 76.8 1.0 7.0 SW 0.00 29.778
09/16/2002 7:00 p 75.6 75.6 76.8 74.5 1.0 5.0 SW 0.00 29.788
09/16/2002 7:30 p 73.7 73.7 74.5 72.9 1.0 4.0 SW 0.00 29.794
09/16/2002 8:00 p 72.1 72.1 72.9 71.3 1.0 7.0 SW 0.00 29.812
09/16/2002 8:30 p 70.9 70.9 71.4 70.4 0.0 4.0 SW 0.00 29.809
09/16/2002 9:00 p 70.2 70.2 70.6 69.4 0.0 6.0 SW 0.00 29.817
09/16/2002 9:30 p 69.0 69.0 70.0 67.9 0.0 1.0 SW 0.00 29.822
09/16/2002 10:00 p 67.2 67.2 68.6 66.2 0.0 0.0 --- 0.00 29.834
09/16/2002 10:30 p 66.0 66.0 66.3 65.6 0.0 0.0 --- 0.00 29.836
09/16/2002 11:00 p 65.2 65.2 66.0 64.7 0.0 0.0 --- 0.00 29.832
09/17/2002 6:00 a 56.4 56.4 57.1 56.0 0.0 0.0 --- 0.00 29.847
09/17/2002 6:30 a 56.2 56.2 56.6 55.7 0.0 0.0 --- 0.00 29.855
09/17/2002 7:00 a 55.6 55.6 56.0 55.2 0.0 0.0 --- 0.00 29.860
09/17/2002 7:30 a 56.4 56.4 57.2 55.9 0.0 0.0 --- 0.00 29.872
09/17/2002 8:00 a 58.3 58.3 60.9 56.8 0.0 0.0 --- 0.00 29.878
09/17/2002 8:30 a 62.4 62.4 63.2 60.9 0.0 4.0 SW 0.00 29.883
09/17/2002 9:00 a 64.2 64.2 65.1 63.2 0.0 3.0 SW 0.00 29.889
09/17/2002 9:30 a 65.7 65.7 66.4 64.9 0.0 4.0 SW 0.00 29.893
09/17/2002 10:00 a 67.1 67.1 67.9 66.4 0.0 6.0 SW 0.00 29.893
09/17/2002 10:30 a 68.9 68.9 69.7 67.8 0.0 1.0 SW 0.00 29.890
09/17/2002 11:00 a 70.5 70.5 71.5 69.6 0.0 3.0 SW 0.00 29.887
09/17/2002 11:30 a 72.4 72.4 73.6 71.3 1.0 6.0 SW 0.00 29.884
09/17/2002 12:00 p 74.5 74.5 76.1 73.4 0.0 4.0 SW 0.00 29.870
09/17/2002 12:30 p 76.3 76.3 77.3 75.5 0.0 3.0 S 0.00 29.859
09/17/2002 1:00 p 78.0 78.0 79.1 77.0 0.0 3.0 SSW 0.00 29.852
09/17/2002 1:30 p 78.9 78.9 79.6 78.1 0.0 2.0 SW 0.00 29.837
09/17/2002 2:00 p 79.6 79.6 80.5 78.6 0.0 4.0 SW 0.00 29.833
09/17/2002 2:30 p 80.3 80.3 81.1 79.6 1.0 5.0 SW 0.00 29.824
09/17/2002 3:00 p 80.5 80.5 81.2 79.7 1.0 4.0 SW 0.00 29.811
09/17/2002 3:30 p 80.2 80.2 80.9 79.5 0.0 4.0 SW 0.00 29.805
09/17/2002 4:00 p 79.7 79.7 80.8 78.9 0.0 5.0 SW 0.00 29.795
09/17/2002 4:30 p 78.4 78.4 79.5 77.6 0.0 3.0 SSW 0.00 29.794
09/17/2002 5:00 p 77.3 77.3 77.8 76.5 0.0 6.0 SW 0.00 29.790
09/17/2002 5:30 p 76.7 76.7 77.4 75.9 0.0 2.0 SW 0.00 29.787
09/17/2002 6:00 p 75.3 75.3 76.8 73.3 0.0 3.0 SW 0.00 29.790
09/17/2002 6:30 p 72.2 72.2 73.3 70.5 0.0 0.0 --- 0.00 29.791
09/17/2002 7:00 p 69.4 69.4 70.5 68.1 0.0 0.0 --- 0.00 29.802
09/17/2002 7:30 p 67.2 67.2 68.1 65.8 0.0 0.0 --- 0.00 29.810
09/17/2002 8:00 p 65.6 65.6 66.0 65.0 0.0 0.0 --- 0.00 29.817
09/17/2002 8:30 p 64.3 64.3 65.0 63.1 0.0 0.0 --- 0.00 29.818
09/17/2002 9:00 p 62.4 62.4 64.5 61.8 0.0 0.0 --- 0.00 29.825
09/17/2002 9:30 p 66.3 66.3 70.1 62.0 0.0 0.0 --- 0.00 29.829
09/17/2002 10:00 p 60.6 60.6 62.9 59.8 0.0 0.0 --- 0.00 29.832
09/17/2002 10:30 p 59.6 59.6 60.3 59.2 0.0 0.0 --- 0.00 29.840
09/17/2002 11:00 p 59.2 59.2 59.8 58.8 0.0 0.0 --- 0.00 29.857
09/17/2002 11:30 p 58.8 58.8 59.2 58.3 0.0 0.0 --- 0.00 29.871
09/18/2002 12:00 a 58.6 58.6 59.0 58.3 0.0 0.0 --- 0.00 29.878
09/18/2002 12:30 a 58.2 58.2 58.6 57.8 0.0 0.0 --- 0.00 29.880
09/18/2002 1:00 a 58.0 58.0 58.5 57.7 0.0 0.0 --- 0.00 29.877
09/18/2002 1:30 a 58.3 58.3 59.2 57.6 0.0 0.0 --- 0.00 29.879
09/18/2002 2:00 a 60.4 60.4 61.4 59.0 0.0 0.0 --- 0.00 29.873
09/18/2002 2:30 a 58.7 58.7 60.5 57.9 0.0 0.0 --- 0.00 29.875
09/18/2002 3:00 a 57.8 57.8 58.2 57.2 0.0 0.0 --- 0.00 29.871
09/18/2002 3:30 a 57.3 57.3 57.6 57.0 0.0 0.0 --- 0.00 29.866
09/18/2002 4:00 a 56.7 56.7 57.3 56.0 0.0 0.0 --- 0.00 29.869
09/18/2002 4:30 a 55.9 55.9 56.4 55.4 0.0 0.0 --- 0.00 29.880
09/18/2002 5:00 a 55.3 55.3 55.6 55.1 0.0 0.0 --- 0.00 29.884
09/18/2002 5:30 a 55.0 55.0 55.5 54.7 0.0 0.0 --- 0.00 29.893
09/18/2002 6:00 a 54.7 54.7 55.0 54.4 0.0 0.0 --- 0.00 29.899
09/18/2002 6:30 a 54.2 54.2 54.6 53.8 0.0 0.0 --- 0.00 29.916
09/18/2002 7:00 a 53.8 53.8 54.2 53.4 0.0 0.0 --- 0.00 29.927
09/18/2002 7:30 a 54.7 54.7 55.4 54.0 0.0 0.0 --- 0.00 29.935
09/18/2002 8:00 a 56.6 56.6 58.2 55.4 0.0 0.0 --- 0.00 29.943
09/18/2002 8:30 a 59.5 59.5 61.1 58.2 0.0 0.0 --- 0.00 29.947
09/18/2002 9:00 a 63.6 63.6 66.2 61.2 0.0 3.0 SW 0.00 29.949
09/18/2002 9:30 a 67.0 67.0 68.0 65.9 0.0 1.0 SW 0.00 29.954
09/18/2002 10:00 a 68.8 68.8 69.3 68.0 0.0 1.0 SW 0.00 29.950
09/18/2002 10:30 a 70.3 70.3 71.0 69.2 0.0 1.0 SW 0.00 29.952
09/18/2002 11:00 a 71.8 71.8 73.5 71.0 0.0 2.0 SW 0.00 29.951
09/18/2002 11:30 a 74.0 74.0 74.5 73.4 0.0 2.0 E 0.00 29.950
09/18/2002 12:00 p 75.8 75.8 77.2 74.2 0.0 3.0 E 0.00 29.945
09/18/2002 12:30 p 76.0 76.0 76.6 75.3 0.0 4.0 E 0.00 29.939
09/18/2002 1:00 p 76.9 76.9 77.7 75.9 0.0 2.0 E 0.00 29.936
09/18/2002 1:30 p 77.6 77.6 79.4 76.0 1.0 4.0 E 0.00 29.930
09/18/2002 2:00 p 76.6 76.6 77.7 75.8 0.0 2.0 E 0.00 29.924
09/18/2002 2:30 p 76.2 76.2 77.0 75.2 0.0 2.0 E 0.00 29.917
09/18/2002 3:00 p 75.7 75.7 76.8 75.1 0.0 2.0 SE 0.00 29.912
09/18/2002 3:30 p 77.3 77.3 78.7 76.2 0.0 3.0 E 0.00 29.906
09/18/2002 4:00 p 77.8 77.8 78.7 76.6 0.0 2.0 E 0.00 29.903
09/18/2002 4:30 p 75.6 75.6 76.9 74.8 0.0 1.0 E 0.00 29.905
09/18/2002 5:00 p 74.0 74.0 74.8 73.2 0.0 1.0 E 0.00 29.907
09/18/2002 5:30 p 73.4 73.4 73.8 72.9 0.0 1.0 E 0.00 29.912
09/18/2002 6:00 p 72.1 72.1 73.6 70.6 0.0 0.0 --- 0.00 29.910
09/18/2002 6:30 p 69.5 69.5 70.5 68.3 0.0 0.0 --- 0.00 29.914
09/18/2002 7:00 p 67.2 67.2 68.3 66.3 0.0 0.0 --- 0.00 29.909
09/18/2002 7:30 p 65.5 65.5 66.4 64.8 0.0 0.0 --- 0.00 29.916
09/18/2002 8:00 p 64.9 64.9 65.8 64.5 0.0 0.0 --- 0.00 29.923
09/18/2002 8:30 p 65.4 65.4 66.1 63.9 0.0 1.0 --- 0.00 29.931
09/18/2002 9:00 p 63.3 63.3 64.0 62.8 0.0 0.0 --- 0.00 29.938
09/18/2002 9:30 p 62.4 62.4 63.4 61.7 0.0 0.0 --- 0.00 29.937
09/18/2002 10:00 p 61.3 61.3 62.0 60.9 0.0 0.0 --- 0.00 29.938
09/18/2002 10:30 p 60.3 60.3 60.9 60.0 0.0 0.0 --- 0.00 29.947
09/18/2002 11:00 p 59.9 59.9 60.3 59.6 0.0 0.0 --- 0.00 29.948
09/18/2002 11:30 p 59.2 59.2 59.6 58.6 0.0 0.0 --- 0.00 29.950
09/19/2002 12:00 a 58.1 58.1 58.7 57.8 0.0 0.0 --- 0.00 29.949
09/19/2002 12:30 a 57.6 57.6 58.1 57.3 0.0 0.0 --- 0.00 29.944
09/19/2002 1:00 a 57.1 57.1 57.6 56.7 0.0 0.0 --- 0.00 29.944
09/19/2002 1:30 a 56.7 56.7 57.1 56.5 0.0 0.0 --- 0.00 29.941
09/19/2002 2:00 a 56.5 56.5 56.9 56.0 0.0 0.0 --- 0.00 29.943
09/19/2002 2:30 a 56.1 56.1 56.5 55.7 0.0 0.0 --- 0.00 29.946
09/19/2002 3:00 a 55.9 55.9 56.2 55.6 0.0 0.0 --- 0.00 29.946
09/19/2002 3:30 a 55.7 55.7 56.1 55.4 0.0 0.0 --- 0.00 29.947
09/19/2002 4:00 a 55.6 55.6 56.0 55.4 0.0 0.0 --- 0.00 29.941
09/19/2002 4:30 a 55.1 55.1 55.7 54.9 0.0 0.0 --- 0.00 29.937
09/19/2002 5:00 a 55.1 55.1 55.5 54.6 0.0 0.0 --- 0.00 29.942
09/19/2002 5:30 a 54.2 54.2 54.8 54.0 0.0 0.0 --- 0.00 29.942
09/19/2002 6:00 a 54.1 54.1 54.5 53.7 0.0 0.0 --- 0.00 29.952
09/19/2002 6:30 a 53.6 53.6 54.3 53.1 0.0 0.0 --- 0.00 29.958
09/19/2002 7:00 a 53.2 53.2 53.7 52.9 0.0 0.0 --- 0.00 29.966
09/19/2002 7:30 a 53.5 53.5 54.0 53.0 0.0 0.0 --- 0.00 29.972
09/19/2002 8:00 a 55.1 55.1 56.6 53.9 0.0 0.0 --- 0.00 29.974
09/19/2002 8:30 a 58.4 58.4 60.4 56.6 0.0 0.0 --- 0.00 29.969
09/19/2002 9:00 a 62.5 62.5 64.3 60.3 0.0 0.0 --- 0.00 29.978
09/19/2002 9:30 a 65.7 65.7 67.0 64.3 0.0 0.0 --- 0.00 29.981
09/19/2002 10:00 a 68.0 68.0 68.9 67.0 0.0 2.0 --- 0.00 29.969
09/19/2002 10:30 a 69.6 69.6 70.8 68.5 0.0 5.0 WSW 0.00 29.960
09/19/2002 11:00 a 71.6 71.6 73.1 70.2 0.0 3.0 E 0.00 29.954
09/19/2002 11:30 a 73.3 73.3 74.7 71.9 0.0 2.0 WSW 0.00 29.951
09/19/2002 12:00 p 75.4 75.4 77.0 72.9 0.0 2.0 ENE 0.00 29.949
09/19/2002 12:30 p 77.2 77.2 78.7 76.0 0.0 2.0 WNW 0.00 29.951
09/19/2002 1:00 p 78.6 78.6 79.7 77.6 0.0 3.0 WSW 0.00 29.945
09/19/2002 1:30 p 78.9 78.9 79.9 77.8 0.0 3.0 WSW 0.00 29.929
09/19/2002 2:00 p 79.3 79.3 80.3 78.2 0.0 4.0 E 0.00 29.918
09/19/2002 2:30 p 80.5 80.5 81.8 78.9 0.0 1.0 ENE 0.00 29.908
09/19/2002 3:00 p 80.4 80.4 81.4 79.7 0.0 1.0 ENE 0.00 29.908
09/19/2002 3:30 p 80.1 80.1 81.1 79.1 0.0 2.0 ENE 0.00 29.902
09/19/2002 4:00 p 78.3 78.3 79.4 77.2 0.0 5.0 ENE 0.00 29.896
09/19/2002 4:30 p 76.9 76.9 77.8 75.7 0.0 4.0 ENE 0.00 29.885
09/19/2002 5:00 p 75.4 75.4 76.0 75.0 1.0 4.0 E 0.00 29.887
09/19/2002 5:30 p 74.4 74.4 75.0 73.8 0.0 3.0 ENE 0.00 29.873
09/19/2002 6:00 p 73.2 73.2 73.8 72.4 0.0 3.0 E 0.00 29.884
09/19/2002 6:30 p 71.7 71.7 72.5 71.0 0.0 3.0 E 0.00 29.889
09/19/2002 7:00 p 70.3 70.3 71.0 69.7 0.0 2.0 E 0.00 29.901
09/19/2002 7:30 p 69.2 69.2 69.7 68.7 0.0 1.0 E 0.00 29.906
09/19/2002 8:00 p 68.2 68.2 68.7 67.7 0.0 1.0 E 0.00 29.913
09/19/2002 8:30 p 67.4 67.4 67.8 67.0 0.0 0.0 --- 0.00 29.918
09/19/2002 9:00 p 67.9 67.9 70.9 66.5 0.0 0.0 --- 0.00 29.920
09/19/2002 9:30 p 69.1 69.1 72.4 65.8 0.0 0.0 --- 0.00 29.919
09/19/2002 10:00 p 64.7 64.7 65.9 64.3 0.0 0.0 --- 0.00 29.926
09/19/2002 10:30 p 64.0 64.0 64.4 63.6 0.0 0.0 --- 0.00 29.931
09/19/2002 11:00 p 63.3 63.3 63.7 63.0 0.0 0.0 --- 0.00 29.923
09/19/2002 11:30 p 62.6 62.6 63.2 62.2 0.0 0.0 --- 0.00 29.918
09/20/2002 12:00 a 62.6 62.6 62.9 62.3 0.0 0.0 --- 0.00 29.931
09/20/2002 12:30 a 62.4 62.4 62.7 62.1 0.0 0.0 --- 0.00 29.936
09/20/2002 1:00 a 62.0 62.0 62.3 61.6 0.0 0.0 --- 0.00 29.937
09/20/2002 1:30 a 61.4 61.4 61.7 61.0 0.0 0.0 --- 0.00 29.940
09/20/2002 2:00 a 61.3 61.3 61.5 60.9 0.0 0.0 --- 0.00 29.939
09/20/2002 2:30 a 60.9 60.9 61.4 60.4 0.0 0.0 --- 0.00 29.934
09/20/2002 3:00 a 60.5 60.5 60.8 60.3 0.0 0.0 --- 0.00 29.936
09/20/2002 3:30 a 60.1 60.1 60.4 59.8 0.0 0.0 --- 0.00 29.925
09/20/2002 4:00 a 59.9 59.9 60.4 59.5 0.0 0.0 --- 0.00 29.920
09/20/2002 4:30 a 59.6 59.6 59.9 59.3 0.0 0.0 --- 0.00 29.916
09/20/2002 5:00 a 59.4 59.4 59.7 59.1 0.0 0.0 --- 0.00 29.913
09/20/2002 5:30 a 59.4 59.4 59.7 59.0 0.0 0.0 --- 0.00 29.921
09/20/2002 6:00 a 59.0 59.0 59.1 58.7 0.0 0.0 --- 0.00 29.927
09/20/2002 6:30 a 58.8 58.8 59.2 58.6 0.0 0.0 --- 0.00 29.929
09/20/2002 7:00 a 58.9 58.9 59.3 58.6 0.0 0.0 --- 0.00 29.931
09/20/2002 7:30 a 60.0 60.0 60.7 59.2 0.0 0.0 --- 0.00 29.924
09/20/2002 8:00 a 61.6 61.6 62.5 60.4 0.0 0.0 --- 0.00 29.923
09/20/2002 8:30 a 63.0 63.0 63.3 62.5 0.0 0.0 --- 0.00 29.926
09/20/2002 9:00 a 64.2 64.2 65.7 63.4 0.0 0.0 --- 0.00 29.935
09/20/2002 9:30 a 66.8 66.8 68.4 65.7 0.0 1.0 --- 0.00 29.938
09/20/2002 10:00 a 69.2 69.2 70.5 68.3 0.0 2.0 E 0.00 29.935
09/20/2002 10:30 a 71.8 71.8 73.1 70.5 0.0 1.0 E 0.00 29.935
09/20/2002 11:00 a 74.0 74.0 75.0 72.8 0.0 2.0 E 0.00 29.923
09/20/2002 11:30 a 75.8 75.8 77.1 74.7 0.0 2.0 WSW 0.00 29.916
09/20/2002 12:00 p 78.2 78.2 79.4 76.9 0.0 2.0 E 0.00 29.903
09/20/2002 12:30 p 80.1 80.1 81.1 79.3 0.0 2.0 ENE 0.00 29.903
09/20/2002 1:00 p 81.0 81.0 82.3 79.3 0.0 3.0 NNE 0.00 29.890
09/20/2002 1:30 p 82.2 82.2 83.6 80.1 0.0 1.0 NE 0.00 29.875
09/20/2002 2:00 p 83.1 83.1 84.3 81.3 0.0 4.0 ENE 0.00 29.866
09/20/2002 2:30 p 82.5 82.5 84.8 80.7 0.0 3.0 E 0.00 29.861
09/20/2002 3:00 p 82.5 82.5 84.1 81.1 0.0 2.0 E 0.00 29.853
09/20/2002 3:30 p 81.1 81.1 82.4 80.1 0.0 2.0 E 0.00 29.851
09/20/2002 4:00 p 80.8 80.8 81.5 80.2 0.0 4.0 E 0.00 29.839
09/20/2002 4:30 p 80.1 80.1 80.7 79.5 0.0 2.0 E 0.00 29.837
09/20/2002 5:00 p 79.5 79.5 80.0 78.9 0.0 1.0 WSW 0.00 29.834
09/20/2002 5:30 p 78.6 78.6 79.1 78.2 0.0 3.0 ENE 0.00 29.836
09/20/2002 6:00 p 77.8 77.8 78.5 77.3 1.0 3.0 NE 0.00 29.834
09/20/2002 6:30 p 76.7 76.7 77.5 75.8 0.0 4.0 NE 0.00 29.836
09/20/2002 7:00 p 75.3 75.3 75.8 74.7 0.0 3.0 NE 0.00 29.832
09/20/2002 7:30 p 74.0 74.0 74.7 73.2 0.0 2.0 NE 0.00 29.840
09/20/2002 8:00 p 73.1 73.1 73.4 72.6 0.0 2.0 NW 0.00 29.847
09/20/2002 8:30 p 73.5 73.5 75.3 72.4 0.0 3.0 E 0.00 29.855
09/20/2002 9:00 p 73.3 73.3 76.1 71.2 0.0 1.0 --- 0.00 29.853
09/20/2002 9:30 p 73.6 73.6 75.8 71.9 0.0 1.0 --- 0.00 29.860
09/20/2002 10:00 p 70.0 70.0 72.6 68.8 0.0 2.0 NW 0.00 29.859
09/20/2002 10:30 p 68.4 68.4 68.9 67.9 0.0 0.0 --- 0.00 29.860
09/20/2002 11:00 p 67.9 67.9 68.0 67.7 0.0 0.0 --- 0.00 29.860
09/20/2002 11:30 p 67.6 67.6 67.8 67.4 0.0 0.0 --- 0.00 29.859
09/21/2002 12:00 a 67.9 67.9 68.3 67.6 0.0 0.0 --- 0.00 29.849
09/21/2002 12:30 a 68.3 68.3 68.5 68.0 0.0 0.0 --- 0.00 29.843
09/21/2002 1:00 a 68.1 68.1 68.2 67.9 0.0 0.0 --- 0.00 29.840
09/21/2002 1:30 a 67.5 67.5 67.9 67.0 0.0 1.0 --- 0.00 29.837
09/21/2002 2:00 a 66.9 66.9 67.2 66.6 0.0 0.0 --- 0.00 29.832
09/21/2002 2:30 a 67.4 67.4 67.6 67.2 0.0 0.0 --- 0.00 29.827
09/21/2002 3:00 a 67.3 67.3 67.5 67.0 0.0 0.0 --- 0.00 29.829
09/21/2002 3:30 a 67.7 67.7 67.9 67.4 0.0 0.0 --- 0.00 29.827
09/21/2002 4:00 a 67.9 67.9 68.0 67.7 0.0 0.0 --- 0.00 29.827
09/21/2002 4:30 a 68.1 68.1 68.2 68.0 0.0 0.0 --- 0.00 29.839
09/21/2002 5:00 a 68.1 68.1 68.3 68.0 0.0 1.0 --- 0.00 29.846
09/21/2002 5:30 a 68.0 68.0 68.2 67.9 0.0 0.0 --- 0.00 29.850
09/21/2002 6:00 a 67.8 67.8 67.9 67.7 0.0 0.0 --- 0.00 29.847
09/21/2002 6:30 a 67.4 67.4 67.7 67.0 0.0 0.0 --- 0.00 29.846
09/21/2002 7:00 a 66.7 66.7 67.1 66.3 0.0 0.0 --- 0.00 29.848
09/21/2002 7:30 a 66.8 66.8 67.1 66.6 0.0 0.0 --- 0.00 29.849
09/21/2002 8:00 a 67.7 67.7 68.7 67.0 0.0 0.0 --- 0.00 29.855
09/21/2002 8:30 a 70.0 70.0 71.8 68.7 0.0 0.0 --- 0.00 29.858
09/21/2002 9:00 a 72.6 72.6 73.5 71.5 0.0 1.0 --- 0.00 29.868
09/21/2002 9:30 a 72.7 72.7 73.4 72.1 0.0 0.0 --- 0.00 29.868
09/21/2002 10:00 a 74.2 74.2 75.3 73.2 0.0 1.0 --- 0.00 29.863
09/21/2002 10:30 a 75.7 75.7 76.4 75.2 0.0 1.0 W 0.00 29.856
09/21/2002 11:00 a 77.4 77.4 78.7 76.4 0.0 1.0 W 0.00 29.858
09/21/2002 11:30 a 79.1 79.1 81.5 77.3 0.0 0.0 --- 0.00 29.849
09/21/2002 12:00 p 81.1 81.1 81.8 80.4 0.0 4.0 NE 0.00 29.839
09/21/2002 12:30 p 83.2 83.2 84.2 81.7 0.0 5.0 W 0.00 29.824
09/21/2002 1:00 p 85.0 85.0 86.7 83.7 0.0 3.0 WSW 0.00 29.815
09/21/2002 1:30 p 84.4 84.4 86.5 82.5 0.0 2.0 ENE 0.00 29.807
09/21/2002 2:00 p 84.1 84.1 85.2 82.7 0.0 2.0 SSE 0.00 29.808
09/21/2002 2:30 p 83.8 83.8 84.5 83.2 0.0 1.0 SSE 0.00 29.803
09/21/2002 3:00 p 84.8 84.8 86.1 83.4 0.0 2.0 SE 0.00 29.804
09/21/2002 3:30 p 84.9 84.9 86.7 83.9 0.0 1.0 E 0.00 29.804
09/21/2002 4:00 p 84.4 84.4 86.0 82.9 0.0 1.0 E 0.00 29.796
09/21/2002 4:30 p 82.1 82.1 83.0 81.5 0.0 1.0 --- 0.00 29.796
09/21/2002 5:00 p 82.4 82.4 82.9 81.7 0.0 0.0 --- 0.00 29.792
09/21/2002 5:30 p 81.9 81.9 82.3 81.4 0.0 1.0 E 0.00 29.803
09/21/2002 6:00 p 80.6 80.6 81.4 80.1 0.0 1.0 E 0.00 29.803
09/21/2002 6:30 p 80.0 80.0 80.3 79.5 0.0 2.0 E 0.00 29.814
09/21/2002 7:00 p 80.2 80.2 81.3 79.4 0.0 2.0 NE 0.00 29.818
09/21/2002 7:30 p 79.8 79.8 80.8 78.9 0.0 3.0 E 0.00 29.829
09/21/2002 8:00 p 77.5 77.5 78.9 76.6 0.0 2.0 NE 0.00 29.838
09/21/2002 8:30 p 76.6 76.6 76.8 76.3 0.0 2.0 WSW 0.00 29.847
09/21/2002 9:00 p 75.9 75.9 76.3 75.5 0.0 3.0 WSW 0.00 29.852
09/21/2002 9:30 p 75.2 75.2 75.5 74.9 0.0 2.0 NNE 0.00 29.859
09/21/2002 10:00 p 74.6 74.6 75.1 73.9 0.0 0.0 --- 0.00 29.873
09/21/2002 10:30 p 73.4 73.4 73.9 73.0 0.0 0.0 --- 0.00 29.880
09/21/2002 11:00 p 73.2 73.2 73.4 72.8 0.0 0.0 --- 0.00 29.879
09/21/2002 11:30 p 72.6 72.6 72.9 72.2 0.0 0.0 --- 0.00 29.875
09/22/2002 12:00 a 71.8 71.8 72.3 71.5 0.0 0.0 --- 0.00 29.879
09/22/2002 12:30 a 71.6 71.6 71.7 71.2 0.0 0.0 --- 0.00 29.874
09/22/2002 1:00 a 70.6 70.6 71.2 70.1 0.0 0.0 --- 0.00 29.878
09/22/2002 1:30 a 69.8 69.8 70.3 69.2 0.0 0.0 --- 0.00 29.876
09/22/2002 2:00 a 69.1 69.1 69.4 68.9 0.0 0.0 --- 0.00 29.883
09/22/2002 2:30 a 69.4 69.4 69.6 69.2 0.0 0.0 --- 0.00 29.881
09/22/2002 3:00 a 69.2 69.2 69.3 69.1 0.0 0.0 --- 0.00 29.882
09/22/2002 3:30 a 69.5 69.5 69.9 69.1 0.0 0.0 --- 0.00 29.886
09/22/2002 4:00 a 70.0 70.0 70.0 69.8 0.0 1.0 --- 0.00 29.882
09/22/2002 4:30 a 70.0 70.0 70.2 69.8 0.0 0.0 --- 0.00 29.879
09/22/2002 5:00 a 69.8 69.8 69.9 69.6 0.0 0.0 --- 0.00 29.877
09/22/2002 5:30 a 69.4 69.4 69.6 69.3 0.0 0.0 --- 0.00 29.879
09/22/2002 6:00 a 69.6 69.6 69.7 69.3 0.0 0.0 --- 0.00 29.887
09/22/2002 6:30 a 71.9 71.9 75.7 69.3 0.0 0.0 --- 0.00 29.885
09/22/2002 7:00 a 71.6 71.6 75.7 69.0 0.0 0.0 --- 0.00 29.892
09/22/2002 7:30 a 69.0 69.0 69.4 68.8 0.0 0.0 --- 0.00 29.888
09/22/2002 8:00 a 69.8 69.8 70.2 69.3 0.0 1.0 --- 0.00 29.896
09/22/2002 8:30 a 70.4 70.4 70.7 70.2 0.0 1.0 --- 0.00 29.893
09/22/2002 9:00 a 71.9 71.9 73.1 70.6 0.0 0.0 --- 0.00 29.899
09/22/2002 9:30 a 73.7 73.7 74.7 72.7 0.0 3.0 NE 0.00 29.896
09/22/2002 10:00 a 75.2 75.2 76.2 73.8 0.0 1.0 --- 0.00 29.896
09/22/2002 10:30 a 75.6 75.6 76.1 75.1 0.0 2.0 SE 0.00 29.896
09/22/2002 11:00 a 75.9 75.9 76.9 75.3 0.0 0.0 --- 0.00 29.887
09/22/2002 11:30 a 78.7 78.7 79.5 76.9 0.0 1.0 SSE 0.00 29.892
09/22/2002 12:00 p 80.3 80.3 81.2 79.2 0.0 3.0 E 0.00 29.883
09/22/2002 12:30 p 81.5 81.5 82.6 80.6 0.0 5.0 ENE 0.00 29.866
09/22/2002 1:00 p 83.4 83.4 85.2 81.4 1.0 5.0 ENE 0.00 29.858
09/22/2002 1:30 p 82.7 82.7 84.8 80.9 0.0 3.0 NE 0.00 29.847
09/22/2002 2:00 p 84.5 84.5 86.4 82.2 0.0 4.0 ENE 0.00 29.840
09/22/2002 2:30 p 85.8 85.8 86.8 84.8 0.0 3.0 E 0.00 29.825
09/22/2002 3:00 p 85.7 85.7 86.9 84.7 0.0 4.0 ENE 0.00 29.814
09/22/2002 3:30 p 85.2 85.2 86.1 84.3 1.0 5.0 ENE 0.00 29.803
09/22/2002 4:00 p 83.8 83.8 85.0 82.6 0.0 3.0 E 0.00 29.790
09/22/2002 4:30 p 82.2 82.2 83.2 81.5 0.0 5.0 E 0.00 29.787
09/22/2002 5:00 p 81.3 81.3 82.1 81.0 0.0 3.0 ENE 0.00 29.792
09/22/2002 5:30 p 79.4 79.4 81.3 78.3 1.0 3.0 E 0.00 29.786
09/22/2002 6:00 p 77.8 77.8 78.3 77.3 0.0 2.0 E 0.00 29.788
09/22/2002 6:30 p 77.0 77.0 77.7 76.2 1.0 3.0 ENE 0.00 29.793
09/22/2002 7:00 p 75.3 75.3 76.2 74.5 0.0 3.0 ENE 0.00 29.796
09/22/2002 7:30 p 74.2 74.2 74.6 73.8 1.0 3.0 E 0.00 29.797
09/22/2002 8:00 p 73.2 73.2 73.8 72.7 0.0 2.0 E 0.00 29.804
09/22/2002 8:30 p 72.3 72.3 72.7 72.0 0.0 3.0 E 0.00 29.812
09/22/2002 9:00 p 72.1 72.1 72.3 71.9 0.0 1.0 --- 0.00 29.820
09/22/2002 9:30 p 71.4 71.4 72.1 71.0 0.0 1.0 --- 0.00 29.818
09/22/2002 10:00 p 70.8 70.8 71.0 70.4 0.0 1.0 --- 0.00 29.812
09/22/2002 10:30 p 70.5 70.5 70.9 70.2 0.0 2.0 E 0.00 29.802
09/22/2002 11:00 p 70.6 70.6 70.9 70.2 0.0 1.0 --- 0.00 29.795
09/22/2002 11:30 p 70.4 70.4 70.8 69.9 0.0 0.0 --- 0.00 29.793
09/23/2002 12:00 a 71.3 71.3 71.7 70.7 0.0 0.0 --- 0.00 29.794
09/23/2002 12:30 a 72.2 72.2 72.5 71.7 0.0 1.0 ESE 0.00 29.797
09/23/2002 1:00 a 72.7 72.7 72.9 72.5 0.0 1.0 --- 0.00 29.798
09/23/2002 1:30 a 72.9 72.9 73.0 72.8 0.0 2.0 ENE 0.00 29.796
09/23/2002 2:00 a